<?xml version="1.0" encoding="utf-8"?>
<gpx xmlns:xsi="http://www.w3.org/2001/XMLSchema-instance" xmlns:xsd="http://www.w3.org/2001/XMLSchema" version="1.1" creator="Shapelink.com" xmlns="http://www.topografix.com/GPX/1/1" xmlns:gpxtpx="http://www.garmin.com/xmlschemas/TrackPointExtension/v1">
  <metadata>
    <name>jogga 2.88 km, 2014-06-09</name>
    <desc></desc>
    <author><name>Mikael Blom</name></author> 
    <time>2014-06-09T17:50:49Z</time>
  </metadata>
  <trk>
    <name>jogga 2.88 km, 2014-06-09</name>
    <trkseg>
      <trkpt lat="59.9539893" lon="17.7148479">
        <ele>71.2749</ele>
        <time>2014-06-09T17:50:49Z</time>
      </trkpt>
      <trkpt lat="59.9539835" lon="17.7148758">
        <ele>71.2749</ele>
        <time>2014-06-09T17:50:50Z</time>
      </trkpt>
      <trkpt lat="59.9539701" lon="17.71489">
        <ele>70.3135</ele>
        <time>2014-06-09T17:50:51Z</time>
      </trkpt>
      <trkpt lat="59.9539499" lon="17.7149011">
        <ele>70.3135</ele>
        <time>2014-06-09T17:50:52Z</time>
      </trkpt>
      <trkpt lat="59.9539187" lon="17.7149187">
        <ele>69.8329</ele>
        <time>2014-06-09T17:50:53Z</time>
      </trkpt>
      <trkpt lat="59.9538811" lon="17.7149292">
        <ele>68.8716</ele>
        <time>2014-06-09T17:50:54Z</time>
      </trkpt>
      <trkpt lat="59.9538525" lon="17.7149508">
        <ele>68.3909</ele>
        <time>2014-06-09T17:50:55Z</time>
      </trkpt>
      <trkpt lat="59.9538229" lon="17.7149784">
        <ele>67.9103</ele>
        <time>2014-06-09T17:50:56Z</time>
      </trkpt>
      <trkpt lat="59.9537956" lon="17.7149996">
        <ele>67.4297</ele>
        <time>2014-06-09T17:50:57Z</time>
      </trkpt>
      <trkpt lat="59.9537581" lon="17.7150337">
        <ele>66.4683</ele>
        <time>2014-06-09T17:50:58Z</time>
      </trkpt>
      <trkpt lat="59.9537245" lon="17.7150854">
        <ele>66.4683</ele>
        <time>2014-06-09T17:50:59Z</time>
      </trkpt>
      <trkpt lat="59.953691" lon="17.7151173">
        <ele>65.9877</ele>
        <time>2014-06-09T17:51:00Z</time>
      </trkpt>
      <trkpt lat="59.9536618" lon="17.7151346">
        <ele>65.5071</ele>
        <time>2014-06-09T17:51:01Z</time>
      </trkpt>
      <trkpt lat="59.9536401" lon="17.715153">
        <ele>65.9877</ele>
        <time>2014-06-09T17:51:02Z</time>
      </trkpt>
      <trkpt lat="59.9536204" lon="17.7151839">
        <ele>65.9877</ele>
        <time>2014-06-09T17:51:03Z</time>
      </trkpt>
      <trkpt lat="59.9536034" lon="17.7152104">
        <ele>65.5071</ele>
        <time>2014-06-09T17:51:04Z</time>
      </trkpt>
      <trkpt lat="59.9535835" lon="17.7152426">
        <ele>65.5071</ele>
        <time>2014-06-09T17:51:05Z</time>
      </trkpt>
      <trkpt lat="59.953553" lon="17.7152735">
        <ele>65.5071</ele>
        <time>2014-06-09T17:51:06Z</time>
      </trkpt>
      <trkpt lat="59.9535272" lon="17.7153198">
        <ele>65.9877</ele>
        <time>2014-06-09T17:51:07Z</time>
      </trkpt>
      <trkpt lat="59.9535021" lon="17.7153509">
        <ele>66.4683</ele>
        <time>2014-06-09T17:51:08Z</time>
      </trkpt>
      <trkpt lat="59.9534841" lon="17.715374">
        <ele>65.9877</ele>
        <time>2014-06-09T17:51:09Z</time>
      </trkpt>
      <trkpt lat="59.9534632" lon="17.7154009">
        <ele>65.5071</ele>
        <time>2014-06-09T17:51:10Z</time>
      </trkpt>
      <trkpt lat="59.9534416" lon="17.7154366">
        <ele>65.5071</ele>
        <time>2014-06-09T17:51:11Z</time>
      </trkpt>
      <trkpt lat="59.953419" lon="17.7154858">
        <ele>65.5071</ele>
        <time>2014-06-09T17:51:12Z</time>
      </trkpt>
      <trkpt lat="59.9533945" lon="17.7155337">
        <ele>65.5071</ele>
        <time>2014-06-09T17:51:13Z</time>
      </trkpt>
      <trkpt lat="59.9533765" lon="17.7155576">
        <ele>64.5457</ele>
        <time>2014-06-09T17:51:14Z</time>
      </trkpt>
      <trkpt lat="59.9533583" lon="17.7155694">
        <ele>63.5844</ele>
        <time>2014-06-09T17:51:15Z</time>
      </trkpt>
      <trkpt lat="59.9533412" lon="17.715593">
        <ele>63.1036</ele>
        <time>2014-06-09T17:51:16Z</time>
      </trkpt>
      <trkpt lat="59.9533234" lon="17.715613">
        <ele>63.1036</ele>
        <time>2014-06-09T17:51:17Z</time>
      </trkpt>
      <trkpt lat="59.9533039" lon="17.7156326">
        <ele>62.6229</ele>
        <time>2014-06-09T17:51:18Z</time>
      </trkpt>
      <trkpt lat="59.9532796" lon="17.7156569">
        <ele>62.1423</ele>
        <time>2014-06-09T17:51:19Z</time>
      </trkpt>
      <trkpt lat="59.9532551" lon="17.7156702">
        <ele>61.181</ele>
        <time>2014-06-09T17:51:20Z</time>
      </trkpt>
      <trkpt lat="59.9532335" lon="17.7156989">
        <ele>60.7003</ele>
        <time>2014-06-09T17:51:21Z</time>
      </trkpt>
      <trkpt lat="59.9532106" lon="17.7157347">
        <ele>60.7003</ele>
        <time>2014-06-09T17:51:22Z</time>
      </trkpt>
      <trkpt lat="59.9531861" lon="17.7157698">
        <ele>61.181</ele>
        <time>2014-06-09T17:51:23Z</time>
      </trkpt>
      <trkpt lat="59.9531609" lon="17.715808">
        <ele>61.181</ele>
        <time>2014-06-09T17:51:24Z</time>
      </trkpt>
      <trkpt lat="59.9531403" lon="17.7158463">
        <ele>60.7003</ele>
        <time>2014-06-09T17:51:25Z</time>
      </trkpt>
      <trkpt lat="59.9531172" lon="17.7158869">
        <ele>59.7391</ele>
        <time>2014-06-09T17:51:26Z</time>
      </trkpt>
      <trkpt lat="59.9530975" lon="17.7159395">
        <ele>60.2197</ele>
        <time>2014-06-09T17:51:27Z</time>
      </trkpt>
      <trkpt lat="59.95308" lon="17.7159807">
        <ele>59.7391</ele>
        <time>2014-06-09T17:51:28Z</time>
      </trkpt>
      <trkpt lat="59.9530652" lon="17.7160186">
        <ele>59.7391</ele>
        <time>2014-06-09T17:51:29Z</time>
      </trkpt>
      <trkpt lat="59.9530475" lon="17.7160626">
        <ele>59.2584</ele>
        <time>2014-06-09T17:51:30Z</time>
      </trkpt>
      <trkpt lat="59.9530345" lon="17.7161053">
        <ele>58.7777</ele>
        <time>2014-06-09T17:51:31Z</time>
      </trkpt>
      <trkpt lat="59.9530212" lon="17.7161443">
        <ele>57.8165</ele>
        <time>2014-06-09T17:51:32Z</time>
      </trkpt>
      <trkpt lat="59.9530132" lon="17.7161863">
        <ele>57.3358</ele>
        <time>2014-06-09T17:51:33Z</time>
      </trkpt>
      <trkpt lat="59.9529974" lon="17.716234">
        <ele>56.8551</ele>
        <time>2014-06-09T17:51:34Z</time>
      </trkpt>
      <trkpt lat="59.9529831" lon="17.716279">
        <ele>56.3745</ele>
        <time>2014-06-09T17:51:35Z</time>
      </trkpt>
      <trkpt lat="59.9529744" lon="17.7163188">
        <ele>55.4131</ele>
        <time>2014-06-09T17:51:36Z</time>
      </trkpt>
      <trkpt lat="59.9529641" lon="17.7163733">
        <ele>55.4131</ele>
        <time>2014-06-09T17:51:37Z</time>
      </trkpt>
      <trkpt lat="59.9529563" lon="17.7164171">
        <ele>55.4131</ele>
        <time>2014-06-09T17:51:38Z</time>
      </trkpt>
      <trkpt lat="59.9529505" lon="17.7164521">
        <ele>55.4131</ele>
        <time>2014-06-09T17:51:39Z</time>
      </trkpt>
      <trkpt lat="59.952943" lon="17.7164902">
        <ele>54.9324</ele>
        <time>2014-06-09T17:51:40Z</time>
      </trkpt>
      <trkpt lat="59.9529397" lon="17.7165276">
        <ele>53.9712</ele>
        <time>2014-06-09T17:51:41Z</time>
      </trkpt>
      <trkpt lat="59.9529354" lon="17.716567">
        <ele>53.0098</ele>
        <time>2014-06-09T17:51:42Z</time>
      </trkpt>
      <trkpt lat="59.9529309" lon="17.7166194">
        <ele>53.0098</ele>
        <time>2014-06-09T17:51:43Z</time>
      </trkpt>
      <trkpt lat="59.9529267" lon="17.7166695">
        <ele>52.0486</ele>
        <time>2014-06-09T17:51:44Z</time>
      </trkpt>
      <trkpt lat="59.9529221" lon="17.7167214">
        <ele>51.5679</ele>
        <time>2014-06-09T17:51:45Z</time>
      </trkpt>
      <trkpt lat="59.9529144" lon="17.7167903">
        <ele>52.0486</ele>
        <time>2014-06-09T17:51:46Z</time>
      </trkpt>
      <trkpt lat="59.9529072" lon="17.7168529">
        <ele>52.0486</ele>
        <time>2014-06-09T17:51:47Z</time>
      </trkpt>
      <trkpt lat="59.9529028" lon="17.7169048">
        <ele>51.5679</ele>
        <time>2014-06-09T17:51:48Z</time>
      </trkpt>
      <trkpt lat="59.952906" lon="17.7169383">
        <ele>51.0872</ele>
        <time>2014-06-09T17:51:49Z</time>
      </trkpt>
      <trkpt lat="59.952905" lon="17.7169794">
        <ele>50.126</ele>
        <time>2014-06-09T17:51:50Z</time>
      </trkpt>
      <trkpt lat="59.9529029" lon="17.717026">
        <ele>50.126</ele>
        <time>2014-06-09T17:51:51Z</time>
      </trkpt>
      <trkpt lat="59.9528953" lon="17.7170828">
        <ele>50.6066</ele>
        <time>2014-06-09T17:51:52Z</time>
      </trkpt>
      <trkpt lat="59.9528837" lon="17.7171333">
        <ele>50.6066</ele>
        <time>2014-06-09T17:51:53Z</time>
      </trkpt>
      <trkpt lat="59.9528739" lon="17.7171929">
        <ele>51.0872</ele>
        <time>2014-06-09T17:51:54Z</time>
      </trkpt>
      <trkpt lat="59.952863" lon="17.717257">
        <ele>51.0872</ele>
        <time>2014-06-09T17:51:55Z</time>
      </trkpt>
      <trkpt lat="59.9528505" lon="17.7173273">
        <ele>52.0486</ele>
        <time>2014-06-09T17:51:56Z</time>
      </trkpt>
      <trkpt lat="59.9528375" lon="17.7173838">
        <ele>52.5292</ele>
        <time>2014-06-09T17:51:57Z</time>
      </trkpt>
      <trkpt lat="59.9528268" lon="17.7174327">
        <ele>52.5292</ele>
        <time>2014-06-09T17:51:58Z</time>
      </trkpt>
      <trkpt lat="59.9528123" lon="17.717487">
        <ele>53.4905</ele>
        <time>2014-06-09T17:51:59Z</time>
      </trkpt>
      <trkpt lat="59.9527999" lon="17.7175382">
        <ele>53.9712</ele>
        <time>2014-06-09T17:52:00Z</time>
      </trkpt>
      <trkpt lat="59.9527895" lon="17.7175855">
        <ele>54.4518</ele>
        <time>2014-06-09T17:52:01Z</time>
      </trkpt>
      <trkpt lat="59.9527772" lon="17.7176277">
        <ele>53.9712</ele>
        <time>2014-06-09T17:52:02Z</time>
      </trkpt>
      <trkpt lat="59.952764" lon="17.7176777">
        <ele>54.4518</ele>
        <time>2014-06-09T17:52:03Z</time>
      </trkpt>
      <trkpt lat="59.9527499" lon="17.717729">
        <ele>54.4518</ele>
        <time>2014-06-09T17:52:04Z</time>
      </trkpt>
      <trkpt lat="59.9527309" lon="17.7177679">
        <ele>54.4518</ele>
        <time>2014-06-09T17:52:05Z</time>
      </trkpt>
      <trkpt lat="59.9527126" lon="17.7178061">
        <ele>53.9712</ele>
        <time>2014-06-09T17:52:06Z</time>
      </trkpt>
      <trkpt lat="59.9526924" lon="17.7178506">
        <ele>53.9712</ele>
        <time>2014-06-09T17:52:07Z</time>
      </trkpt>
      <trkpt lat="59.9526756" lon="17.7178946">
        <ele>53.9712</ele>
        <time>2014-06-09T17:52:08Z</time>
      </trkpt>
      <trkpt lat="59.9526604" lon="17.7179419">
        <ele>53.9712</ele>
        <time>2014-06-09T17:52:09Z</time>
      </trkpt>
      <trkpt lat="59.9526492" lon="17.7179811">
        <ele>54.4518</ele>
        <time>2014-06-09T17:52:10Z</time>
      </trkpt>
      <trkpt lat="59.9526414" lon="17.7180237">
        <ele>55.4131</ele>
        <time>2014-06-09T17:52:11Z</time>
      </trkpt>
      <trkpt lat="59.9526319" lon="17.7180668">
        <ele>55.4131</ele>
        <time>2014-06-09T17:52:12Z</time>
      </trkpt>
      <trkpt lat="59.9526202" lon="17.7181169">
        <ele>55.4131</ele>
        <time>2014-06-09T17:52:13Z</time>
      </trkpt>
      <trkpt lat="59.9526129" lon="17.7181732">
        <ele>56.3745</ele>
        <time>2014-06-09T17:52:14Z</time>
      </trkpt>
      <trkpt lat="59.9526004" lon="17.7182097">
        <ele>55.8938</ele>
        <time>2014-06-09T17:52:15Z</time>
      </trkpt>
      <trkpt lat="59.9525922" lon="17.7182473">
        <ele>55.8938</ele>
        <time>2014-06-09T17:52:16Z</time>
      </trkpt>
      <trkpt lat="59.9525816" lon="17.718296">
        <ele>56.3745</ele>
        <time>2014-06-09T17:52:17Z</time>
      </trkpt>
      <trkpt lat="59.9525688" lon="17.7183384">
        <ele>55.8938</ele>
        <time>2014-06-09T17:52:18Z</time>
      </trkpt>
      <trkpt lat="59.9525564" lon="17.7183791">
        <ele>55.4131</ele>
        <time>2014-06-09T17:52:19Z</time>
      </trkpt>
      <trkpt lat="59.9525462" lon="17.7184344">
        <ele>55.4131</ele>
        <time>2014-06-09T17:52:20Z</time>
      </trkpt>
      <trkpt lat="59.9525347" lon="17.7184797">
        <ele>54.9324</ele>
        <time>2014-06-09T17:52:21Z</time>
      </trkpt>
      <trkpt lat="59.9525212" lon="17.7185287">
        <ele>54.9324</ele>
        <time>2014-06-09T17:52:22Z</time>
      </trkpt>
      <trkpt lat="59.9525085" lon="17.7185843">
        <ele>54.9324</ele>
        <time>2014-06-09T17:52:23Z</time>
      </trkpt>
      <trkpt lat="59.9524977" lon="17.7186489">
        <ele>55.8938</ele>
        <time>2014-06-09T17:52:24Z</time>
      </trkpt>
      <trkpt lat="59.9524885" lon="17.7187085">
        <ele>55.8938</ele>
        <time>2014-06-09T17:52:25Z</time>
      </trkpt>
      <trkpt lat="59.9524803" lon="17.7187571">
        <ele>56.3745</ele>
        <time>2014-06-09T17:52:26Z</time>
      </trkpt>
      <trkpt lat="59.9524694" lon="17.7188125">
        <ele>56.8551</ele>
        <time>2014-06-09T17:52:27Z</time>
      </trkpt>
      <trkpt lat="59.9524583" lon="17.7188681">
        <ele>57.8165</ele>
        <time>2014-06-09T17:52:28Z</time>
      </trkpt>
      <trkpt lat="59.9524434" lon="17.7189109">
        <ele>58.2971</ele>
        <time>2014-06-09T17:52:29Z</time>
      </trkpt>
      <trkpt lat="59.9524285" lon="17.7189555">
        <ele>58.7777</ele>
        <time>2014-06-09T17:52:30Z</time>
      </trkpt>
      <trkpt lat="59.9524163" lon="17.7190043">
        <ele>59.2584</ele>
        <time>2014-06-09T17:52:31Z</time>
      </trkpt>
      <trkpt lat="59.9524039" lon="17.7190591">
        <ele>59.7391</ele>
        <time>2014-06-09T17:52:32Z</time>
      </trkpt>
      <trkpt lat="59.9523934" lon="17.7191037">
        <ele>60.2197</ele>
        <time>2014-06-09T17:52:33Z</time>
      </trkpt>
      <trkpt lat="59.9523865" lon="17.7191436">
        <ele>59.7391</ele>
        <time>2014-06-09T17:52:34Z</time>
      </trkpt>
      <trkpt lat="59.9523824" lon="17.7191642">
        <ele>58.7777</ele>
        <time>2014-06-09T17:52:35Z</time>
      </trkpt>
      <trkpt lat="59.9523797" lon="17.7191928">
        <ele>57.8165</ele>
        <time>2014-06-09T17:52:36Z</time>
      </trkpt>
      <trkpt lat="59.9523737" lon="17.7192358">
        <ele>57.3358</ele>
        <time>2014-06-09T17:52:37Z</time>
      </trkpt>
      <trkpt lat="59.9523715" lon="17.7192817">
        <ele>56.8551</ele>
        <time>2014-06-09T17:52:38Z</time>
      </trkpt>
      <trkpt lat="59.9523667" lon="17.7193256">
        <ele>56.8551</ele>
        <time>2014-06-09T17:52:39Z</time>
      </trkpt>
      <trkpt lat="59.9523637" lon="17.7193825">
        <ele>56.3745</ele>
        <time>2014-06-09T17:52:40Z</time>
      </trkpt>
      <trkpt lat="59.9523622" lon="17.7194362">
        <ele>55.8938</ele>
        <time>2014-06-09T17:52:41Z</time>
      </trkpt>
      <trkpt lat="59.9523605" lon="17.7194832">
        <ele>54.9324</ele>
        <time>2014-06-09T17:52:42Z</time>
      </trkpt>
      <trkpt lat="59.9523615" lon="17.7195245">
        <ele>54.4518</ele>
        <time>2014-06-09T17:52:43Z</time>
      </trkpt>
      <trkpt lat="59.9523678" lon="17.7195694">
        <ele>53.9712</ele>
        <time>2014-06-09T17:52:44Z</time>
      </trkpt>
      <trkpt lat="59.9523793" lon="17.7196185">
        <ele>53.9712</ele>
        <time>2014-06-09T17:52:45Z</time>
      </trkpt>
      <trkpt lat="59.9523987" lon="17.7196648">
        <ele>53.0098</ele>
        <time>2014-06-09T17:52:46Z</time>
      </trkpt>
      <trkpt lat="59.9524114" lon="17.7197101">
        <ele>52.5292</ele>
        <time>2014-06-09T17:52:47Z</time>
      </trkpt>
      <trkpt lat="59.9524264" lon="17.7197619">
        <ele>52.5292</ele>
        <time>2014-06-09T17:52:48Z</time>
      </trkpt>
      <trkpt lat="59.9524448" lon="17.7198078">
        <ele>52.0486</ele>
        <time>2014-06-09T17:52:49Z</time>
      </trkpt>
      <trkpt lat="59.9524605" lon="17.7198578">
        <ele>51.5679</ele>
        <time>2014-06-09T17:52:50Z</time>
      </trkpt>
      <trkpt lat="59.9524702" lon="17.7199072">
        <ele>51.0872</ele>
        <time>2014-06-09T17:52:51Z</time>
      </trkpt>
      <trkpt lat="59.9524765" lon="17.7199549">
        <ele>50.126</ele>
        <time>2014-06-09T17:52:52Z</time>
      </trkpt>
      <trkpt lat="59.952477" lon="17.7199941">
        <ele>49.1646</ele>
        <time>2014-06-09T17:52:53Z</time>
      </trkpt>
      <trkpt lat="59.9524806" lon="17.7200351">
        <ele>48.684</ele>
        <time>2014-06-09T17:52:54Z</time>
      </trkpt>
      <trkpt lat="59.9524827" lon="17.7200854">
        <ele>48.2034</ele>
        <time>2014-06-09T17:52:55Z</time>
      </trkpt>
      <trkpt lat="59.9524852" lon="17.7201432">
        <ele>48.684</ele>
        <time>2014-06-09T17:52:56Z</time>
      </trkpt>
      <trkpt lat="59.9524865" lon="17.720205">
        <ele>48.684</ele>
        <time>2014-06-09T17:52:57Z</time>
      </trkpt>
      <trkpt lat="59.9524873" lon="17.7202666">
        <ele>48.684</ele>
        <time>2014-06-09T17:52:58Z</time>
      </trkpt>
      <trkpt lat="59.9524927" lon="17.720318">
        <ele>48.2034</ele>
        <time>2014-06-09T17:52:59Z</time>
      </trkpt>
      <trkpt lat="59.9524993" lon="17.7203791">
        <ele>49.1646</ele>
        <time>2014-06-09T17:53:00Z</time>
      </trkpt>
      <trkpt lat="59.9525068" lon="17.7204395">
        <ele>49.1646</ele>
        <time>2014-06-09T17:53:01Z</time>
      </trkpt>
      <trkpt lat="59.9525094" lon="17.7204982">
        <ele>49.1646</ele>
        <time>2014-06-09T17:53:02Z</time>
      </trkpt>
      <trkpt lat="59.9525102" lon="17.7205475">
        <ele>49.6453</ele>
        <time>2014-06-09T17:53:03Z</time>
      </trkpt>
      <trkpt lat="59.9525066" lon="17.7205928">
        <ele>49.6453</ele>
        <time>2014-06-09T17:53:04Z</time>
      </trkpt>
      <trkpt lat="59.9525051" lon="17.7206563">
        <ele>49.6453</ele>
        <time>2014-06-09T17:53:05Z</time>
      </trkpt>
      <trkpt lat="59.952505" lon="17.7207163">
        <ele>49.6453</ele>
        <time>2014-06-09T17:53:06Z</time>
      </trkpt>
      <trkpt lat="59.9525076" lon="17.7207732">
        <ele>49.6453</ele>
        <time>2014-06-09T17:53:07Z</time>
      </trkpt>
      <trkpt lat="59.9525119" lon="17.7208299">
        <ele>50.126</ele>
        <time>2014-06-09T17:53:08Z</time>
      </trkpt>
      <trkpt lat="59.9525091" lon="17.7208752">
        <ele>49.1646</ele>
        <time>2014-06-09T17:53:09Z</time>
      </trkpt>
      <trkpt lat="59.9525049" lon="17.7209359">
        <ele>49.6453</ele>
        <time>2014-06-09T17:53:10Z</time>
      </trkpt>
      <trkpt lat="59.9525032" lon="17.720995">
        <ele>49.1646</ele>
        <time>2014-06-09T17:53:11Z</time>
      </trkpt>
      <trkpt lat="59.9525056" lon="17.7210435">
        <ele>48.684</ele>
        <time>2014-06-09T17:53:12Z</time>
      </trkpt>
      <trkpt lat="59.9525078" lon="17.7210919">
        <ele>48.684</ele>
        <time>2014-06-09T17:53:13Z</time>
      </trkpt>
      <trkpt lat="59.9525134" lon="17.721149">
        <ele>49.1646</ele>
        <time>2014-06-09T17:53:14Z</time>
      </trkpt>
      <trkpt lat="59.9525206" lon="17.7212094">
        <ele>49.6453</ele>
        <time>2014-06-09T17:53:15Z</time>
      </trkpt>
      <trkpt lat="59.9525265" lon="17.7212737">
        <ele>50.126</ele>
        <time>2014-06-09T17:53:16Z</time>
      </trkpt>
      <trkpt lat="59.9525248" lon="17.7213329">
        <ele>51.0872</ele>
        <time>2014-06-09T17:53:17Z</time>
      </trkpt>
      <trkpt lat="59.9525241" lon="17.7213887">
        <ele>51.5679</ele>
        <time>2014-06-09T17:53:18Z</time>
      </trkpt>
      <trkpt lat="59.9525181" lon="17.7214466">
        <ele>52.0486</ele>
        <time>2014-06-09T17:53:19Z</time>
      </trkpt>
      <trkpt lat="59.9525165" lon="17.7215024">
        <ele>52.5292</ele>
        <time>2014-06-09T17:53:20Z</time>
      </trkpt>
      <trkpt lat="59.9525196" lon="17.7215537">
        <ele>52.0486</ele>
        <time>2014-06-09T17:53:21Z</time>
      </trkpt>
      <trkpt lat="59.9525246" lon="17.7216019">
        <ele>52.0486</ele>
        <time>2014-06-09T17:53:22Z</time>
      </trkpt>
      <trkpt lat="59.9525316" lon="17.7216652">
        <ele>53.0098</ele>
        <time>2014-06-09T17:53:23Z</time>
      </trkpt>
      <trkpt lat="59.9525373" lon="17.7217228">
        <ele>52.5292</ele>
        <time>2014-06-09T17:53:24Z</time>
      </trkpt>
      <trkpt lat="59.9525461" lon="17.7217882">
        <ele>53.4905</ele>
        <time>2014-06-09T17:53:25Z</time>
      </trkpt>
      <trkpt lat="59.9525512" lon="17.7218549">
        <ele>53.4905</ele>
        <time>2014-06-09T17:53:26Z</time>
      </trkpt>
      <trkpt lat="59.9525631" lon="17.7219607">
        <ele>53.4905</ele>
        <time>2014-06-09T17:53:28Z</time>
      </trkpt>
      <trkpt lat="59.9525699" lon="17.7220155">
        <ele>54.4518</ele>
        <time>2014-06-09T17:53:29Z</time>
      </trkpt>
      <trkpt lat="59.9525673" lon="17.7220667">
        <ele>54.4518</ele>
        <time>2014-06-09T17:53:30Z</time>
      </trkpt>
      <trkpt lat="59.9525586" lon="17.7221243">
        <ele>54.4518</ele>
        <time>2014-06-09T17:53:31Z</time>
      </trkpt>
      <trkpt lat="59.9525481" lon="17.7221784">
        <ele>54.4518</ele>
        <time>2014-06-09T17:53:32Z</time>
      </trkpt>
      <trkpt lat="59.9525397" lon="17.7222351">
        <ele>53.9712</ele>
        <time>2014-06-09T17:53:33Z</time>
      </trkpt>
      <trkpt lat="59.9525305" lon="17.7222779">
        <ele>53.0098</ele>
        <time>2014-06-09T17:53:34Z</time>
      </trkpt>
      <trkpt lat="59.9525238" lon="17.7223334">
        <ele>52.0486</ele>
        <time>2014-06-09T17:53:35Z</time>
      </trkpt>
      <trkpt lat="59.9525145" lon="17.7223905">
        <ele>52.0486</ele>
        <time>2014-06-09T17:53:36Z</time>
      </trkpt>
      <trkpt lat="59.9525003" lon="17.7224367">
        <ele>51.5679</ele>
        <time>2014-06-09T17:53:37Z</time>
      </trkpt>
      <trkpt lat="59.9524921" lon="17.7224987">
        <ele>51.5679</ele>
        <time>2014-06-09T17:53:38Z</time>
      </trkpt>
      <trkpt lat="59.9524844" lon="17.7225668">
        <ele>52.5292</ele>
        <time>2014-06-09T17:53:39Z</time>
      </trkpt>
      <trkpt lat="59.9524797" lon="17.7226101">
        <ele>51.0872</ele>
        <time>2014-06-09T17:53:40Z</time>
      </trkpt>
      <trkpt lat="59.9524736" lon="17.722661">
        <ele>50.6066</ele>
        <time>2014-06-09T17:53:41Z</time>
      </trkpt>
      <trkpt lat="59.9524711" lon="17.7227227">
        <ele>50.6066</ele>
        <time>2014-06-09T17:53:42Z</time>
      </trkpt>
      <trkpt lat="59.9524734" lon="17.7227827">
        <ele>51.0872</ele>
        <time>2014-06-09T17:53:43Z</time>
      </trkpt>
      <trkpt lat="59.9524736" lon="17.7228368">
        <ele>50.6066</ele>
        <time>2014-06-09T17:53:44Z</time>
      </trkpt>
      <trkpt lat="59.9524729" lon="17.72289">
        <ele>50.126</ele>
        <time>2014-06-09T17:53:45Z</time>
      </trkpt>
      <trkpt lat="59.9524739" lon="17.722948">
        <ele>50.126</ele>
        <time>2014-06-09T17:53:46Z</time>
      </trkpt>
      <trkpt lat="59.9524742" lon="17.7229991">
        <ele>49.1646</ele>
        <time>2014-06-09T17:53:47Z</time>
      </trkpt>
      <trkpt lat="59.9524761" lon="17.7230485">
        <ele>48.684</ele>
        <time>2014-06-09T17:53:48Z</time>
      </trkpt>
      <trkpt lat="59.9524804" lon="17.7230898">
        <ele>47.7225</ele>
        <time>2014-06-09T17:53:49Z</time>
      </trkpt>
      <trkpt lat="59.9524889" lon="17.7231344">
        <ele>47.2418</ele>
        <time>2014-06-09T17:53:50Z</time>
      </trkpt>
      <trkpt lat="59.9524984" lon="17.7231832">
        <ele>46.7612</ele>
        <time>2014-06-09T17:53:51Z</time>
      </trkpt>
      <trkpt lat="59.9525078" lon="17.7232293">
        <ele>46.2806</ele>
        <time>2014-06-09T17:53:52Z</time>
      </trkpt>
      <trkpt lat="59.95252" lon="17.7232774">
        <ele>46.2806</ele>
        <time>2014-06-09T17:53:53Z</time>
      </trkpt>
      <trkpt lat="59.9525325" lon="17.7233132">
        <ele>45.7999</ele>
        <time>2014-06-09T17:53:54Z</time>
      </trkpt>
      <trkpt lat="59.9525429" lon="17.7233483">
        <ele>45.3192</ele>
        <time>2014-06-09T17:53:55Z</time>
      </trkpt>
      <trkpt lat="59.9525554" lon="17.7233943">
        <ele>45.3192</ele>
        <time>2014-06-09T17:53:56Z</time>
      </trkpt>
      <trkpt lat="59.9525692" lon="17.7234404">
        <ele>45.7999</ele>
        <time>2014-06-09T17:53:57Z</time>
      </trkpt>
      <trkpt lat="59.9525848" lon="17.7234898">
        <ele>45.7999</ele>
        <time>2014-06-09T17:53:58Z</time>
      </trkpt>
      <trkpt lat="59.9526087" lon="17.723524">
        <ele>45.7999</ele>
        <time>2014-06-09T17:53:59Z</time>
      </trkpt>
      <trkpt lat="59.9526344" lon="17.7235554">
        <ele>45.7999</ele>
        <time>2014-06-09T17:54:00Z</time>
      </trkpt>
      <trkpt lat="59.9526536" lon="17.7235994">
        <ele>46.2806</ele>
        <time>2014-06-09T17:54:01Z</time>
      </trkpt>
      <trkpt lat="59.9526683" lon="17.7236466">
        <ele>46.2806</ele>
        <time>2014-06-09T17:54:02Z</time>
      </trkpt>
      <trkpt lat="59.9526807" lon="17.7236964">
        <ele>46.7612</ele>
        <time>2014-06-09T17:54:03Z</time>
      </trkpt>
      <trkpt lat="59.9526901" lon="17.7237481">
        <ele>46.7612</ele>
        <time>2014-06-09T17:54:04Z</time>
      </trkpt>
      <trkpt lat="59.9526978" lon="17.7238004">
        <ele>47.2418</ele>
        <time>2014-06-09T17:54:05Z</time>
      </trkpt>
      <trkpt lat="59.9527056" lon="17.7238495">
        <ele>46.7612</ele>
        <time>2014-06-09T17:54:06Z</time>
      </trkpt>
      <trkpt lat="59.9527138" lon="17.7238934">
        <ele>46.7612</ele>
        <time>2014-06-09T17:54:07Z</time>
      </trkpt>
      <trkpt lat="59.9527072" lon="17.7239465">
        <ele>46.7612</ele>
        <time>2014-06-09T17:54:08Z</time>
      </trkpt>
      <trkpt lat="59.9526928" lon="17.7239932">
        <ele>46.2806</ele>
        <time>2014-06-09T17:54:09Z</time>
      </trkpt>
      <trkpt lat="59.952678" lon="17.724044">
        <ele>46.2806</ele>
        <time>2014-06-09T17:54:10Z</time>
      </trkpt>
      <trkpt lat="59.9526616" lon="17.7240937">
        <ele>45.7999</ele>
        <time>2014-06-09T17:54:11Z</time>
      </trkpt>
      <trkpt lat="59.9526458" lon="17.7241461">
        <ele>45.7999</ele>
        <time>2014-06-09T17:54:12Z</time>
      </trkpt>
      <trkpt lat="59.9526274" lon="17.7242006">
        <ele>45.7999</ele>
        <time>2014-06-09T17:54:13Z</time>
      </trkpt>
      <trkpt lat="59.9526098" lon="17.7242523">
        <ele>45.7999</ele>
        <time>2014-06-09T17:54:14Z</time>
      </trkpt>
      <trkpt lat="59.9525937" lon="17.7242868">
        <ele>45.3192</ele>
        <time>2014-06-09T17:54:15Z</time>
      </trkpt>
      <trkpt lat="59.9525735" lon="17.724329">
        <ele>45.3192</ele>
        <time>2014-06-09T17:54:16Z</time>
      </trkpt>
      <trkpt lat="59.9525558" lon="17.724363">
        <ele>45.3192</ele>
        <time>2014-06-09T17:54:17Z</time>
      </trkpt>
      <trkpt lat="59.9525365" lon="17.7244163">
        <ele>45.7999</ele>
        <time>2014-06-09T17:54:18Z</time>
      </trkpt>
      <trkpt lat="59.9525191" lon="17.7244712">
        <ele>45.7999</ele>
        <time>2014-06-09T17:54:19Z</time>
      </trkpt>
      <trkpt lat="59.9525" lon="17.7245173">
        <ele>46.2806</ele>
        <time>2014-06-09T17:54:20Z</time>
      </trkpt>
      <trkpt lat="59.9524813" lon="17.7245509">
        <ele>45.7999</ele>
        <time>2014-06-09T17:54:21Z</time>
      </trkpt>
      <trkpt lat="59.9524621" lon="17.72459">
        <ele>45.7999</ele>
        <time>2014-06-09T17:54:22Z</time>
      </trkpt>
      <trkpt lat="59.9524395" lon="17.7246273">
        <ele>46.2806</ele>
        <time>2014-06-09T17:54:23Z</time>
      </trkpt>
      <trkpt lat="59.9524155" lon="17.7246571">
        <ele>45.7999</ele>
        <time>2014-06-09T17:54:24Z</time>
      </trkpt>
      <trkpt lat="59.9523943" lon="17.724692">
        <ele>45.7999</ele>
        <time>2014-06-09T17:54:25Z</time>
      </trkpt>
      <trkpt lat="59.9523729" lon="17.7247298">
        <ele>45.7999</ele>
        <time>2014-06-09T17:54:26Z</time>
      </trkpt>
      <trkpt lat="59.9523498" lon="17.7247656">
        <ele>45.7999</ele>
        <time>2014-06-09T17:54:27Z</time>
      </trkpt>
      <trkpt lat="59.9523268" lon="17.7248044">
        <ele>46.2806</ele>
        <time>2014-06-09T17:54:28Z</time>
      </trkpt>
      <trkpt lat="59.9523035" lon="17.7248469">
        <ele>46.2806</ele>
        <time>2014-06-09T17:54:29Z</time>
      </trkpt>
      <trkpt lat="59.9522819" lon="17.7248935">
        <ele>46.7612</ele>
        <time>2014-06-09T17:54:30Z</time>
      </trkpt>
      <trkpt lat="59.9522605" lon="17.7249308">
        <ele>46.7612</ele>
        <time>2014-06-09T17:54:31Z</time>
      </trkpt>
      <trkpt lat="59.9522371" lon="17.7249752">
        <ele>46.7612</ele>
        <time>2014-06-09T17:54:32Z</time>
      </trkpt>
      <trkpt lat="59.9522169" lon="17.7250142">
        <ele>46.2806</ele>
        <time>2014-06-09T17:54:33Z</time>
      </trkpt>
      <trkpt lat="59.9521979" lon="17.7250605">
        <ele>46.7612</ele>
        <time>2014-06-09T17:54:34Z</time>
      </trkpt>
      <trkpt lat="59.9521783" lon="17.7250985">
        <ele>46.7612</ele>
        <time>2014-06-09T17:54:35Z</time>
      </trkpt>
      <trkpt lat="59.9521592" lon="17.7251401">
        <ele>46.7612</ele>
        <time>2014-06-09T17:54:36Z</time>
      </trkpt>
      <trkpt lat="59.9521405" lon="17.7251919">
        <ele>47.2418</ele>
        <time>2014-06-09T17:54:37Z</time>
      </trkpt>
      <trkpt lat="59.952119" lon="17.7252454">
        <ele>47.2418</ele>
        <time>2014-06-09T17:54:38Z</time>
      </trkpt>
      <trkpt lat="59.9521001" lon="17.7252925">
        <ele>47.2418</ele>
        <time>2014-06-09T17:54:39Z</time>
      </trkpt>
      <trkpt lat="59.9520819" lon="17.7253331">
        <ele>47.2418</ele>
        <time>2014-06-09T17:54:40Z</time>
      </trkpt>
      <trkpt lat="59.9520602" lon="17.7253732">
        <ele>47.2418</ele>
        <time>2014-06-09T17:54:41Z</time>
      </trkpt>
      <trkpt lat="59.9520388" lon="17.7254173">
        <ele>47.2418</ele>
        <time>2014-06-09T17:54:42Z</time>
      </trkpt>
      <trkpt lat="59.9520197" lon="17.7254539">
        <ele>47.2418</ele>
        <time>2014-06-09T17:54:43Z</time>
      </trkpt>
      <trkpt lat="59.9519993" lon="17.7254943">
        <ele>47.7225</ele>
        <time>2014-06-09T17:54:44Z</time>
      </trkpt>
      <trkpt lat="59.9519815" lon="17.7255315">
        <ele>47.7225</ele>
        <time>2014-06-09T17:54:45Z</time>
      </trkpt>
      <trkpt lat="59.9519649" lon="17.7255715">
        <ele>47.7225</ele>
        <time>2014-06-09T17:54:46Z</time>
      </trkpt>
      <trkpt lat="59.9519471" lon="17.7256202">
        <ele>47.7225</ele>
        <time>2014-06-09T17:54:47Z</time>
      </trkpt>
      <trkpt lat="59.9519273" lon="17.7256685">
        <ele>47.2418</ele>
        <time>2014-06-09T17:54:48Z</time>
      </trkpt>
      <trkpt lat="59.9519051" lon="17.7257137">
        <ele>47.7225</ele>
        <time>2014-06-09T17:54:49Z</time>
      </trkpt>
      <trkpt lat="59.9518846" lon="17.7257484">
        <ele>47.7225</ele>
        <time>2014-06-09T17:54:50Z</time>
      </trkpt>
      <trkpt lat="59.951861" lon="17.7257862">
        <ele>48.2034</ele>
        <time>2014-06-09T17:54:51Z</time>
      </trkpt>
      <trkpt lat="59.9518364" lon="17.7258243">
        <ele>48.2034</ele>
        <time>2014-06-09T17:54:52Z</time>
      </trkpt>
      <trkpt lat="59.9518127" lon="17.7258585">
        <ele>47.7225</ele>
        <time>2014-06-09T17:54:53Z</time>
      </trkpt>
      <trkpt lat="59.9517899" lon="17.7259006">
        <ele>47.7225</ele>
        <time>2014-06-09T17:54:54Z</time>
      </trkpt>
      <trkpt lat="59.9517675" lon="17.7259372">
        <ele>47.2418</ele>
        <time>2014-06-09T17:54:55Z</time>
      </trkpt>
      <trkpt lat="59.9517429" lon="17.7259749">
        <ele>47.2418</ele>
        <time>2014-06-09T17:54:56Z</time>
      </trkpt>
      <trkpt lat="59.9517193" lon="17.7260144">
        <ele>47.2418</ele>
        <time>2014-06-09T17:54:57Z</time>
      </trkpt>
      <trkpt lat="59.951697" lon="17.7260471">
        <ele>47.7225</ele>
        <time>2014-06-09T17:54:58Z</time>
      </trkpt>
      <trkpt lat="59.9516722" lon="17.7260758">
        <ele>47.2418</ele>
        <time>2014-06-09T17:54:59Z</time>
      </trkpt>
      <trkpt lat="59.9516452" lon="17.7261104">
        <ele>47.2418</ele>
        <time>2014-06-09T17:55:00Z</time>
      </trkpt>
      <trkpt lat="59.9516224" lon="17.7261491">
        <ele>47.2418</ele>
        <time>2014-06-09T17:55:01Z</time>
      </trkpt>
      <trkpt lat="59.9516086" lon="17.7261783">
        <ele>47.2418</ele>
        <time>2014-06-09T17:55:02Z</time>
      </trkpt>
      <trkpt lat="59.9515941" lon="17.726208">
        <ele>46.7612</ele>
        <time>2014-06-09T17:55:03Z</time>
      </trkpt>
      <trkpt lat="59.9515742" lon="17.7262482">
        <ele>46.7612</ele>
        <time>2014-06-09T17:55:04Z</time>
      </trkpt>
      <trkpt lat="59.9515556" lon="17.7263056">
        <ele>47.2418</ele>
        <time>2014-06-09T17:55:05Z</time>
      </trkpt>
      <trkpt lat="59.9515397" lon="17.7263466">
        <ele>47.2418</ele>
        <time>2014-06-09T17:55:06Z</time>
      </trkpt>
      <trkpt lat="59.951526" lon="17.7263731">
        <ele>47.2418</ele>
        <time>2014-06-09T17:55:07Z</time>
      </trkpt>
      <trkpt lat="59.9515142" lon="17.7263995">
        <ele>47.2418</ele>
        <time>2014-06-09T17:55:08Z</time>
      </trkpt>
      <trkpt lat="59.9515023" lon="17.7264372">
        <ele>47.2418</ele>
        <time>2014-06-09T17:55:09Z</time>
      </trkpt>
      <trkpt lat="59.9514919" lon="17.7264714">
        <ele>47.2418</ele>
        <time>2014-06-09T17:55:10Z</time>
      </trkpt>
      <trkpt lat="59.9514794" lon="17.7265169">
        <ele>47.7225</ele>
        <time>2014-06-09T17:55:11Z</time>
      </trkpt>
      <trkpt lat="59.9514629" lon="17.7265564">
        <ele>48.2034</ele>
        <time>2014-06-09T17:55:12Z</time>
      </trkpt>
      <trkpt lat="59.9514451" lon="17.7265911">
        <ele>48.2034</ele>
        <time>2014-06-09T17:55:13Z</time>
      </trkpt>
      <trkpt lat="59.9514257" lon="17.7266381">
        <ele>48.684</ele>
        <time>2014-06-09T17:55:14Z</time>
      </trkpt>
      <trkpt lat="59.9514106" lon="17.7266836">
        <ele>49.1646</ele>
        <time>2014-06-09T17:55:15Z</time>
      </trkpt>
      <trkpt lat="59.9514023" lon="17.7267335">
        <ele>49.1646</ele>
        <time>2014-06-09T17:55:16Z</time>
      </trkpt>
      <trkpt lat="59.951406" lon="17.7267789">
        <ele>48.684</ele>
        <time>2014-06-09T17:55:17Z</time>
      </trkpt>
      <trkpt lat="59.951414" lon="17.726839">
        <ele>49.1646</ele>
        <time>2014-06-09T17:55:18Z</time>
      </trkpt>
      <trkpt lat="59.951421" lon="17.7268931">
        <ele>48.684</ele>
        <time>2014-06-09T17:55:19Z</time>
      </trkpt>
      <trkpt lat="59.9514308" lon="17.7269387">
        <ele>48.2034</ele>
        <time>2014-06-09T17:55:20Z</time>
      </trkpt>
      <trkpt lat="59.9514456" lon="17.7269816">
        <ele>48.2034</ele>
        <time>2014-06-09T17:55:21Z</time>
      </trkpt>
      <trkpt lat="59.9514532" lon="17.7270262">
        <ele>47.7225</ele>
        <time>2014-06-09T17:55:22Z</time>
      </trkpt>
      <trkpt lat="59.9514601" lon="17.7270749">
        <ele>46.7612</ele>
        <time>2014-06-09T17:55:23Z</time>
      </trkpt>
      <trkpt lat="59.951467" lon="17.7271273">
        <ele>46.2806</ele>
        <time>2014-06-09T17:55:24Z</time>
      </trkpt>
      <trkpt lat="59.9514756" lon="17.7271961">
        <ele>46.2806</ele>
        <time>2014-06-09T17:55:25Z</time>
      </trkpt>
      <trkpt lat="59.9514873" lon="17.7272588">
        <ele>46.2806</ele>
        <time>2014-06-09T17:55:26Z</time>
      </trkpt>
      <trkpt lat="59.9514938" lon="17.727307">
        <ele>45.3192</ele>
        <time>2014-06-09T17:55:27Z</time>
      </trkpt>
      <trkpt lat="59.9514949" lon="17.7273638">
        <ele>45.3192</ele>
        <time>2014-06-09T17:55:28Z</time>
      </trkpt>
      <trkpt lat="59.9514935" lon="17.7274106">
        <ele>44.358</ele>
        <time>2014-06-09T17:55:29Z</time>
      </trkpt>
      <trkpt lat="59.9514962" lon="17.7274524">
        <ele>43.8773</ele>
        <time>2014-06-09T17:55:30Z</time>
      </trkpt>
      <trkpt lat="59.9515023" lon="17.7274965">
        <ele>43.8773</ele>
        <time>2014-06-09T17:55:31Z</time>
      </trkpt>
      <trkpt lat="59.9515074" lon="17.7275508">
        <ele>43.8773</ele>
        <time>2014-06-09T17:55:32Z</time>
      </trkpt>
      <trkpt lat="59.9515119" lon="17.7276074">
        <ele>43.3966</ele>
        <time>2014-06-09T17:55:33Z</time>
      </trkpt>
      <trkpt lat="59.9515218" lon="17.7276643">
        <ele>43.3966</ele>
        <time>2014-06-09T17:55:34Z</time>
      </trkpt>
      <trkpt lat="59.951535" lon="17.7277079">
        <ele>42.916</ele>
        <time>2014-06-09T17:55:35Z</time>
      </trkpt>
      <trkpt lat="59.951549" lon="17.7277561">
        <ele>42.916</ele>
        <time>2014-06-09T17:55:36Z</time>
      </trkpt>
      <trkpt lat="59.9515643" lon="17.7277933">
        <ele>42.916</ele>
        <time>2014-06-09T17:55:37Z</time>
      </trkpt>
      <trkpt lat="59.9515829" lon="17.7278256">
        <ele>42.916</ele>
        <time>2014-06-09T17:55:38Z</time>
      </trkpt>
      <trkpt lat="59.9516015" lon="17.7278683">
        <ele>43.3966</ele>
        <time>2014-06-09T17:55:39Z</time>
      </trkpt>
      <trkpt lat="59.9516187" lon="17.7278953">
        <ele>42.916</ele>
        <time>2014-06-09T17:55:40Z</time>
      </trkpt>
      <trkpt lat="59.9516406" lon="17.7279145">
        <ele>42.4354</ele>
        <time>2014-06-09T17:55:41Z</time>
      </trkpt>
      <trkpt lat="59.9516638" lon="17.7279286">
        <ele>42.4354</ele>
        <time>2014-06-09T17:55:42Z</time>
      </trkpt>
      <trkpt lat="59.9516862" lon="17.7279343">
        <ele>42.4354</ele>
        <time>2014-06-09T17:55:43Z</time>
      </trkpt>
      <trkpt lat="59.9517141" lon="17.7279311">
        <ele>41.9547</ele>
        <time>2014-06-09T17:55:44Z</time>
      </trkpt>
      <trkpt lat="59.9517395" lon="17.7279279">
        <ele>41.9547</ele>
        <time>2014-06-09T17:55:45Z</time>
      </trkpt>
      <trkpt lat="59.9517642" lon="17.7279202">
        <ele>41.9547</ele>
        <time>2014-06-09T17:55:46Z</time>
      </trkpt>
      <trkpt lat="59.9517878" lon="17.7279028">
        <ele>41.474</ele>
        <time>2014-06-09T17:55:47Z</time>
      </trkpt>
      <trkpt lat="59.9518136" lon="17.7278762">
        <ele>41.474</ele>
        <time>2014-06-09T17:55:48Z</time>
      </trkpt>
      <trkpt lat="59.9518362" lon="17.7278576">
        <ele>40.9934</ele>
        <time>2014-06-09T17:55:49Z</time>
      </trkpt>
      <trkpt lat="59.951856" lon="17.7278395">
        <ele>40.9934</ele>
        <time>2014-06-09T17:55:50Z</time>
      </trkpt>
      <trkpt lat="59.9518757" lon="17.7278115">
        <ele>40.5128</ele>
        <time>2014-06-09T17:55:51Z</time>
      </trkpt>
      <trkpt lat="59.9518908" lon="17.7277736">
        <ele>40.5128</ele>
        <time>2014-06-09T17:55:52Z</time>
      </trkpt>
      <trkpt lat="59.9519031" lon="17.7277317">
        <ele>40.0321</ele>
        <time>2014-06-09T17:55:53Z</time>
      </trkpt>
      <trkpt lat="59.9519188" lon="17.727681">
        <ele>40.5128</ele>
        <time>2014-06-09T17:55:54Z</time>
      </trkpt>
      <trkpt lat="59.9519287" lon="17.7276295">
        <ele>40.9934</ele>
        <time>2014-06-09T17:55:55Z</time>
      </trkpt>
      <trkpt lat="59.9519446" lon="17.7275799">
        <ele>41.474</ele>
        <time>2014-06-09T17:55:56Z</time>
      </trkpt>
      <trkpt lat="59.9519654" lon="17.7275301">
        <ele>41.474</ele>
        <time>2014-06-09T17:55:57Z</time>
      </trkpt>
      <trkpt lat="59.9519789" lon="17.7274741">
        <ele>41.474</ele>
        <time>2014-06-09T17:55:58Z</time>
      </trkpt>
      <trkpt lat="59.9519882" lon="17.7274145">
        <ele>41.474</ele>
        <time>2014-06-09T17:55:59Z</time>
      </trkpt>
      <trkpt lat="59.9519897" lon="17.7273607">
        <ele>41.474</ele>
        <time>2014-06-09T17:56:00Z</time>
      </trkpt>
      <trkpt lat="59.9519918" lon="17.7273044">
        <ele>41.9547</ele>
        <time>2014-06-09T17:56:01Z</time>
      </trkpt>
      <trkpt lat="59.9519957" lon="17.7272504">
        <ele>41.9547</ele>
        <time>2014-06-09T17:56:02Z</time>
      </trkpt>
      <trkpt lat="59.9520027" lon="17.7271944">
        <ele>41.9547</ele>
        <time>2014-06-09T17:56:03Z</time>
      </trkpt>
      <trkpt lat="59.9520094" lon="17.7271292">
        <ele>42.4354</ele>
        <time>2014-06-09T17:56:04Z</time>
      </trkpt>
      <trkpt lat="59.952012" lon="17.7270671">
        <ele>42.4354</ele>
        <time>2014-06-09T17:56:05Z</time>
      </trkpt>
      <trkpt lat="59.9520176" lon="17.7270144">
        <ele>42.4354</ele>
        <time>2014-06-09T17:56:06Z</time>
      </trkpt>
      <trkpt lat="59.9520258" lon="17.7269656">
        <ele>41.9547</ele>
        <time>2014-06-09T17:56:07Z</time>
      </trkpt>
      <trkpt lat="59.952031" lon="17.7269136">
        <ele>41.9547</ele>
        <time>2014-06-09T17:56:08Z</time>
      </trkpt>
      <trkpt lat="59.9520379" lon="17.7268661">
        <ele>41.9547</ele>
        <time>2014-06-09T17:56:09Z</time>
      </trkpt>
      <trkpt lat="59.9520473" lon="17.72682">
        <ele>41.9547</ele>
        <time>2014-06-09T17:56:10Z</time>
      </trkpt>
      <trkpt lat="59.9520572" lon="17.7267688">
        <ele>41.9547</ele>
        <time>2014-06-09T17:56:11Z</time>
      </trkpt>
      <trkpt lat="59.9520691" lon="17.7267128">
        <ele>41.9547</ele>
        <time>2014-06-09T17:56:12Z</time>
      </trkpt>
      <trkpt lat="59.9520786" lon="17.7266651">
        <ele>41.9547</ele>
        <time>2014-06-09T17:56:13Z</time>
      </trkpt>
      <trkpt lat="59.9520897" lon="17.7266219">
        <ele>41.9547</ele>
        <time>2014-06-09T17:56:14Z</time>
      </trkpt>
      <trkpt lat="59.9521001" lon="17.7265777">
        <ele>41.9547</ele>
        <time>2014-06-09T17:56:15Z</time>
      </trkpt>
      <trkpt lat="59.9521135" lon="17.7265363">
        <ele>41.9547</ele>
        <time>2014-06-09T17:56:16Z</time>
      </trkpt>
      <trkpt lat="59.952127" lon="17.7264981">
        <ele>41.9547</ele>
        <time>2014-06-09T17:56:17Z</time>
      </trkpt>
      <trkpt lat="59.9521416" lon="17.7264599">
        <ele>42.4354</ele>
        <time>2014-06-09T17:56:18Z</time>
      </trkpt>
      <trkpt lat="59.9521584" lon="17.7264144">
        <ele>42.916</ele>
        <time>2014-06-09T17:56:19Z</time>
      </trkpt>
      <trkpt lat="59.9521772" lon="17.726375">
        <ele>42.916</ele>
        <time>2014-06-09T17:56:20Z</time>
      </trkpt>
      <trkpt lat="59.9521944" lon="17.7263424">
        <ele>42.4354</ele>
        <time>2014-06-09T17:56:21Z</time>
      </trkpt>
      <trkpt lat="59.9522119" lon="17.7263108">
        <ele>42.4354</ele>
        <time>2014-06-09T17:56:22Z</time>
      </trkpt>
      <trkpt lat="59.9522333" lon="17.7262835">
        <ele>42.4354</ele>
        <time>2014-06-09T17:56:23Z</time>
      </trkpt>
      <trkpt lat="59.952254" lon="17.7262569">
        <ele>42.4354</ele>
        <time>2014-06-09T17:56:24Z</time>
      </trkpt>
      <trkpt lat="59.9522755" lon="17.7262226">
        <ele>42.4354</ele>
        <time>2014-06-09T17:56:25Z</time>
      </trkpt>
      <trkpt lat="59.9522948" lon="17.7261891">
        <ele>41.9547</ele>
        <time>2014-06-09T17:56:26Z</time>
      </trkpt>
      <trkpt lat="59.9523124" lon="17.726154">
        <ele>41.9547</ele>
        <time>2014-06-09T17:56:27Z</time>
      </trkpt>
      <trkpt lat="59.9523294" lon="17.7261131">
        <ele>41.9547</ele>
        <time>2014-06-09T17:56:28Z</time>
      </trkpt>
      <trkpt lat="59.9523465" lon="17.7260648">
        <ele>41.474</ele>
        <time>2014-06-09T17:56:29Z</time>
      </trkpt>
      <trkpt lat="59.9523672" lon="17.7260153">
        <ele>41.474</ele>
        <time>2014-06-09T17:56:30Z</time>
      </trkpt>
      <trkpt lat="59.9523912" lon="17.725977">
        <ele>40.9934</ele>
        <time>2014-06-09T17:56:31Z</time>
      </trkpt>
      <trkpt lat="59.9524161" lon="17.7259433">
        <ele>40.9934</ele>
        <time>2014-06-09T17:56:32Z</time>
      </trkpt>
      <trkpt lat="59.9524422" lon="17.7259197">
        <ele>41.9547</ele>
        <time>2014-06-09T17:56:33Z</time>
      </trkpt>
      <trkpt lat="59.9524625" lon="17.7258902">
        <ele>41.9547</ele>
        <time>2014-06-09T17:56:34Z</time>
      </trkpt>
      <trkpt lat="59.9524812" lon="17.7258556">
        <ele>41.9547</ele>
        <time>2014-06-09T17:56:35Z</time>
      </trkpt>
      <trkpt lat="59.9524961" lon="17.7258291">
        <ele>42.4354</ele>
        <time>2014-06-09T17:56:36Z</time>
      </trkpt>
      <trkpt lat="59.952515" lon="17.7258011">
        <ele>42.4354</ele>
        <time>2014-06-09T17:56:37Z</time>
      </trkpt>
      <trkpt lat="59.9525346" lon="17.7257617">
        <ele>42.4354</ele>
        <time>2014-06-09T17:56:38Z</time>
      </trkpt>
      <trkpt lat="59.9525542" lon="17.7257198">
        <ele>42.4354</ele>
        <time>2014-06-09T17:56:39Z</time>
      </trkpt>
      <trkpt lat="59.9525778" lon="17.7256843">
        <ele>42.916</ele>
        <time>2014-06-09T17:56:40Z</time>
      </trkpt>
      <trkpt lat="59.9526002" lon="17.7256581">
        <ele>42.916</ele>
        <time>2014-06-09T17:56:41Z</time>
      </trkpt>
      <trkpt lat="59.9526218" lon="17.7256312">
        <ele>42.916</ele>
        <time>2014-06-09T17:56:42Z</time>
      </trkpt>
      <trkpt lat="59.9526419" lon="17.7255934">
        <ele>42.916</ele>
        <time>2014-06-09T17:56:43Z</time>
      </trkpt>
      <trkpt lat="59.9526636" lon="17.7255512">
        <ele>42.916</ele>
        <time>2014-06-09T17:56:44Z</time>
      </trkpt>
      <trkpt lat="59.9526831" lon="17.7255121">
        <ele>43.3966</ele>
        <time>2014-06-09T17:56:45Z</time>
      </trkpt>
      <trkpt lat="59.9527057" lon="17.7254804">
        <ele>44.8386</ele>
        <time>2014-06-09T17:56:46Z</time>
      </trkpt>
      <trkpt lat="59.9527298" lon="17.7254457">
        <ele>45.7999</ele>
        <time>2014-06-09T17:56:47Z</time>
      </trkpt>
      <trkpt lat="59.9527553" lon="17.7254094">
        <ele>46.7612</ele>
        <time>2014-06-09T17:56:48Z</time>
      </trkpt>
      <trkpt lat="59.9527754" lon="17.7253737">
        <ele>46.7612</ele>
        <time>2014-06-09T17:56:49Z</time>
      </trkpt>
      <trkpt lat="59.9527952" lon="17.7253348">
        <ele>47.2418</ele>
        <time>2014-06-09T17:56:50Z</time>
      </trkpt>
      <trkpt lat="59.9528147" lon="17.7252977">
        <ele>47.2418</ele>
        <time>2014-06-09T17:56:51Z</time>
      </trkpt>
      <trkpt lat="59.952831" lon="17.7252604">
        <ele>47.2418</ele>
        <time>2014-06-09T17:56:52Z</time>
      </trkpt>
      <trkpt lat="59.9528464" lon="17.7252173">
        <ele>47.7225</ele>
        <time>2014-06-09T17:56:53Z</time>
      </trkpt>
      <trkpt lat="59.9528698" lon="17.725177">
        <ele>48.2034</ele>
        <time>2014-06-09T17:56:54Z</time>
      </trkpt>
      <trkpt lat="59.9528936" lon="17.7251407">
        <ele>48.2034</ele>
        <time>2014-06-09T17:56:55Z</time>
      </trkpt>
      <trkpt lat="59.9529188" lon="17.725104">
        <ele>48.684</ele>
        <time>2014-06-09T17:56:56Z</time>
      </trkpt>
      <trkpt lat="59.9529501" lon="17.7250749">
        <ele>48.684</ele>
        <time>2014-06-09T17:56:57Z</time>
      </trkpt>
      <trkpt lat="59.9529839" lon="17.7250441">
        <ele>48.684</ele>
        <time>2014-06-09T17:56:58Z</time>
      </trkpt>
      <trkpt lat="59.9530129" lon="17.7249983">
        <ele>48.684</ele>
        <time>2014-06-09T17:56:59Z</time>
      </trkpt>
      <trkpt lat="59.9530355" lon="17.7249534">
        <ele>49.1646</ele>
        <time>2014-06-09T17:57:00Z</time>
      </trkpt>
      <trkpt lat="59.9530594" lon="17.7249178">
        <ele>49.6453</ele>
        <time>2014-06-09T17:57:01Z</time>
      </trkpt>
      <trkpt lat="59.9530841" lon="17.7248851">
        <ele>49.6453</ele>
        <time>2014-06-09T17:57:02Z</time>
      </trkpt>
      <trkpt lat="59.9531074" lon="17.7248545">
        <ele>49.6453</ele>
        <time>2014-06-09T17:57:03Z</time>
      </trkpt>
      <trkpt lat="59.9531304" lon="17.7248205">
        <ele>50.126</ele>
        <time>2014-06-09T17:57:04Z</time>
      </trkpt>
      <trkpt lat="59.9531443" lon="17.7247814">
        <ele>51.0872</ele>
        <time>2014-06-09T17:57:05Z</time>
      </trkpt>
      <trkpt lat="59.9531564" lon="17.7247366">
        <ele>51.5679</ele>
        <time>2014-06-09T17:57:06Z</time>
      </trkpt>
      <trkpt lat="59.9531675" lon="17.7246977">
        <ele>52.0486</ele>
        <time>2014-06-09T17:57:07Z</time>
      </trkpt>
      <trkpt lat="59.9531822" lon="17.7246604">
        <ele>52.0486</ele>
        <time>2014-06-09T17:57:08Z</time>
      </trkpt>
      <trkpt lat="59.9531989" lon="17.7246271">
        <ele>52.0486</ele>
        <time>2014-06-09T17:57:09Z</time>
      </trkpt>
      <trkpt lat="59.9532195" lon="17.724592">
        <ele>51.5679</ele>
        <time>2014-06-09T17:57:10Z</time>
      </trkpt>
      <trkpt lat="59.9532416" lon="17.7245566">
        <ele>51.0872</ele>
        <time>2014-06-09T17:57:11Z</time>
      </trkpt>
      <trkpt lat="59.9532609" lon="17.7245059">
        <ele>52.0486</ele>
        <time>2014-06-09T17:57:12Z</time>
      </trkpt>
      <trkpt lat="59.9532766" lon="17.7244575">
        <ele>52.5292</ele>
        <time>2014-06-09T17:57:13Z</time>
      </trkpt>
      <trkpt lat="59.9532928" lon="17.7244129">
        <ele>53.0098</ele>
        <time>2014-06-09T17:57:14Z</time>
      </trkpt>
      <trkpt lat="59.95331" lon="17.7243717">
        <ele>53.9712</ele>
        <time>2014-06-09T17:57:15Z</time>
      </trkpt>
      <trkpt lat="59.9533232" lon="17.7243315">
        <ele>53.9712</ele>
        <time>2014-06-09T17:57:16Z</time>
      </trkpt>
      <trkpt lat="59.9533407" lon="17.7242901">
        <ele>54.4518</ele>
        <time>2014-06-09T17:57:17Z</time>
      </trkpt>
      <trkpt lat="59.9533584" lon="17.724244">
        <ele>54.9324</ele>
        <time>2014-06-09T17:57:18Z</time>
      </trkpt>
      <trkpt lat="59.9533778" lon="17.7242041">
        <ele>55.4131</ele>
        <time>2014-06-09T17:57:19Z</time>
      </trkpt>
      <trkpt lat="59.9533907" lon="17.7241631">
        <ele>55.8938</ele>
        <time>2014-06-09T17:57:20Z</time>
      </trkpt>
      <trkpt lat="59.9533987" lon="17.7241267">
        <ele>56.3745</ele>
        <time>2014-06-09T17:57:21Z</time>
      </trkpt>
      <trkpt lat="59.953409" lon="17.724089">
        <ele>56.3745</ele>
        <time>2014-06-09T17:57:22Z</time>
      </trkpt>
      <trkpt lat="59.9534296" lon="17.7240443">
        <ele>56.3745</ele>
        <time>2014-06-09T17:57:23Z</time>
      </trkpt>
      <trkpt lat="59.9534546" lon="17.7240031">
        <ele>56.3745</ele>
        <time>2014-06-09T17:57:24Z</time>
      </trkpt>
      <trkpt lat="59.953476" lon="17.7239658">
        <ele>56.3745</ele>
        <time>2014-06-09T17:57:25Z</time>
      </trkpt>
      <trkpt lat="59.9534971" lon="17.7239307">
        <ele>55.8938</ele>
        <time>2014-06-09T17:57:26Z</time>
      </trkpt>
      <trkpt lat="59.9535143" lon="17.7238949">
        <ele>55.8938</ele>
        <time>2014-06-09T17:57:27Z</time>
      </trkpt>
      <trkpt lat="59.9535344" lon="17.7238626">
        <ele>55.8938</ele>
        <time>2014-06-09T17:57:28Z</time>
      </trkpt>
      <trkpt lat="59.9535527" lon="17.7238214">
        <ele>55.4131</ele>
        <time>2014-06-09T17:57:29Z</time>
      </trkpt>
      <trkpt lat="59.9535721" lon="17.7237789">
        <ele>55.4131</ele>
        <time>2014-06-09T17:57:30Z</time>
      </trkpt>
      <trkpt lat="59.9535912" lon="17.7237405">
        <ele>54.9324</ele>
        <time>2014-06-09T17:57:31Z</time>
      </trkpt>
      <trkpt lat="59.9536148" lon="17.7236941">
        <ele>55.4131</ele>
        <time>2014-06-09T17:57:32Z</time>
      </trkpt>
      <trkpt lat="59.953634" lon="17.7236515">
        <ele>54.9324</ele>
        <time>2014-06-09T17:57:33Z</time>
      </trkpt>
      <trkpt lat="59.9536536" lon="17.7236089">
        <ele>55.4131</ele>
        <time>2014-06-09T17:57:34Z</time>
      </trkpt>
      <trkpt lat="59.9536721" lon="17.7235674">
        <ele>54.9324</ele>
        <time>2014-06-09T17:57:35Z</time>
      </trkpt>
      <trkpt lat="59.9536919" lon="17.7235389">
        <ele>53.9712</ele>
        <time>2014-06-09T17:57:36Z</time>
      </trkpt>
      <trkpt lat="59.9537126" lon="17.7235063">
        <ele>53.9712</ele>
        <time>2014-06-09T17:57:37Z</time>
      </trkpt>
      <trkpt lat="59.9537352" lon="17.7234769">
        <ele>53.9712</ele>
        <time>2014-06-09T17:57:38Z</time>
      </trkpt>
      <trkpt lat="59.9537612" lon="17.7234483">
        <ele>53.4905</ele>
        <time>2014-06-09T17:57:39Z</time>
      </trkpt>
      <trkpt lat="59.9537862" lon="17.7234249">
        <ele>53.0098</ele>
        <time>2014-06-09T17:57:40Z</time>
      </trkpt>
      <trkpt lat="59.9538093" lon="17.7234068">
        <ele>52.5292</ele>
        <time>2014-06-09T17:57:41Z</time>
      </trkpt>
      <trkpt lat="59.9538331" lon="17.7233833">
        <ele>52.5292</ele>
        <time>2014-06-09T17:57:42Z</time>
      </trkpt>
      <trkpt lat="59.9538531" lon="17.7233617">
        <ele>52.5292</ele>
        <time>2014-06-09T17:57:43Z</time>
      </trkpt>
      <trkpt lat="59.9538748" lon="17.7233478">
        <ele>52.5292</ele>
        <time>2014-06-09T17:57:44Z</time>
      </trkpt>
      <trkpt lat="59.9538986" lon="17.7233253">
        <ele>53.0098</ele>
        <time>2014-06-09T17:57:45Z</time>
      </trkpt>
      <trkpt lat="59.9539239" lon="17.7233039">
        <ele>53.4905</ele>
        <time>2014-06-09T17:57:46Z</time>
      </trkpt>
      <trkpt lat="59.9539466" lon="17.7232831">
        <ele>53.4905</ele>
        <time>2014-06-09T17:57:47Z</time>
      </trkpt>
      <trkpt lat="59.953967" lon="17.7232516">
        <ele>53.4905</ele>
        <time>2014-06-09T17:57:48Z</time>
      </trkpt>
      <trkpt lat="59.9539886" lon="17.7232248">
        <ele>53.4905</ele>
        <time>2014-06-09T17:57:49Z</time>
      </trkpt>
      <trkpt lat="59.9540125" lon="17.7232054">
        <ele>53.4905</ele>
        <time>2014-06-09T17:57:50Z</time>
      </trkpt>
      <trkpt lat="59.9540357" lon="17.7231867">
        <ele>54.4518</ele>
        <time>2014-06-09T17:57:51Z</time>
      </trkpt>
      <trkpt lat="59.9540605" lon="17.7231748">
        <ele>54.9324</ele>
        <time>2014-06-09T17:57:52Z</time>
      </trkpt>
      <trkpt lat="59.9540954" lon="17.7231655">
        <ele>55.8938</ele>
        <time>2014-06-09T17:57:53Z</time>
      </trkpt>
      <trkpt lat="59.9541203" lon="17.7231739">
        <ele>55.8938</ele>
        <time>2014-06-09T17:57:54Z</time>
      </trkpt>
      <trkpt lat="59.954144" lon="17.7231741">
        <ele>55.8938</ele>
        <time>2014-06-09T17:57:55Z</time>
      </trkpt>
      <trkpt lat="59.9541607" lon="17.7231727">
        <ele>54.9324</ele>
        <time>2014-06-09T17:57:56Z</time>
      </trkpt>
      <trkpt lat="59.9541885" lon="17.7231819">
        <ele>55.4131</ele>
        <time>2014-06-09T17:57:57Z</time>
      </trkpt>
      <trkpt lat="59.9542254" lon="17.7232003">
        <ele>57.3358</ele>
        <time>2014-06-09T17:57:58Z</time>
      </trkpt>
      <trkpt lat="59.954252" lon="17.723228">
        <ele>56.8551</ele>
        <time>2014-06-09T17:57:59Z</time>
      </trkpt>
      <trkpt lat="59.954271" lon="17.7232452">
        <ele>57.3358</ele>
        <time>2014-06-09T17:58:00Z</time>
      </trkpt>
      <trkpt lat="59.9542938" lon="17.7232611">
        <ele>57.3358</ele>
        <time>2014-06-09T17:58:01Z</time>
      </trkpt>
      <trkpt lat="59.9543125" lon="17.7232851">
        <ele>56.3745</ele>
        <time>2014-06-09T17:58:02Z</time>
      </trkpt>
      <trkpt lat="59.9543358" lon="17.7233028">
        <ele>56.8551</ele>
        <time>2014-06-09T17:58:03Z</time>
      </trkpt>
      <trkpt lat="59.9543658" lon="17.7233225">
        <ele>56.8551</ele>
        <time>2014-06-09T17:58:04Z</time>
      </trkpt>
      <trkpt lat="59.9543952" lon="17.7233384">
        <ele>57.3358</ele>
        <time>2014-06-09T17:58:05Z</time>
      </trkpt>
      <trkpt lat="59.9544175" lon="17.7233578">
        <ele>56.8551</ele>
        <time>2014-06-09T17:58:06Z</time>
      </trkpt>
      <trkpt lat="59.9544535" lon="17.7233717">
        <ele>57.8165</ele>
        <time>2014-06-09T17:58:07Z</time>
      </trkpt>
      <trkpt lat="59.9544912" lon="17.7233986">
        <ele>59.2584</ele>
        <time>2014-06-09T17:58:08Z</time>
      </trkpt>
      <trkpt lat="59.9545192" lon="17.723426">
        <ele>60.2197</ele>
        <time>2014-06-09T17:58:09Z</time>
      </trkpt>
      <trkpt lat="59.9545451" lon="17.7234579">
        <ele>60.7003</ele>
        <time>2014-06-09T17:58:10Z</time>
      </trkpt>
      <trkpt lat="59.9545645" lon="17.7234805">
        <ele>59.7391</ele>
        <time>2014-06-09T17:58:11Z</time>
      </trkpt>
      <trkpt lat="59.9545896" lon="17.7234948">
        <ele>59.7391</ele>
        <time>2014-06-09T17:58:12Z</time>
      </trkpt>
      <trkpt lat="59.954616" lon="17.7235219">
        <ele>59.2584</ele>
        <time>2014-06-09T17:58:13Z</time>
      </trkpt>
      <trkpt lat="59.9546414" lon="17.7235576">
        <ele>58.7777</ele>
        <time>2014-06-09T17:58:14Z</time>
      </trkpt>
      <trkpt lat="59.9546681" lon="17.7235919">
        <ele>58.7777</ele>
        <time>2014-06-09T17:58:15Z</time>
      </trkpt>
      <trkpt lat="59.954702" lon="17.7236093">
        <ele>58.7777</ele>
        <time>2014-06-09T17:58:16Z</time>
      </trkpt>
      <trkpt lat="59.9547331" lon="17.7236063">
        <ele>57.8165</ele>
        <time>2014-06-09T17:58:17Z</time>
      </trkpt>
      <trkpt lat="59.9547563" lon="17.7236213">
        <ele>57.8165</ele>
        <time>2014-06-09T17:58:18Z</time>
      </trkpt>
      <trkpt lat="59.9547787" lon="17.7236315">
        <ele>57.8165</ele>
        <time>2014-06-09T17:58:19Z</time>
      </trkpt>
      <trkpt lat="59.9548004" lon="17.7236394">
        <ele>57.8165</ele>
        <time>2014-06-09T17:58:20Z</time>
      </trkpt>
      <trkpt lat="59.9548283" lon="17.7236372">
        <ele>57.8165</ele>
        <time>2014-06-09T17:58:21Z</time>
      </trkpt>
      <trkpt lat="59.9548554" lon="17.7236492">
        <ele>57.8165</ele>
        <time>2014-06-09T17:58:22Z</time>
      </trkpt>
      <trkpt lat="59.9548878" lon="17.7236538">
        <ele>57.8165</ele>
        <time>2014-06-09T17:58:23Z</time>
      </trkpt>
      <trkpt lat="59.9549071" lon="17.7236533">
        <ele>56.8551</ele>
        <time>2014-06-09T17:58:24Z</time>
      </trkpt>
      <trkpt lat="59.9549331" lon="17.7236501">
        <ele>56.3745</ele>
        <time>2014-06-09T17:58:25Z</time>
      </trkpt>
      <trkpt lat="59.9549687" lon="17.723648">
        <ele>55.8938</ele>
        <time>2014-06-09T17:58:26Z</time>
      </trkpt>
      <trkpt lat="59.9549976" lon="17.7236379">
        <ele>55.8938</ele>
        <time>2014-06-09T17:58:27Z</time>
      </trkpt>
      <trkpt lat="59.9550232" lon="17.7236162">
        <ele>55.4131</ele>
        <time>2014-06-09T17:58:28Z</time>
      </trkpt>
      <trkpt lat="59.9550469" lon="17.7235991">
        <ele>54.9324</ele>
        <time>2014-06-09T17:58:29Z</time>
      </trkpt>
      <trkpt lat="59.9550703" lon="17.7235726">
        <ele>54.9324</ele>
        <time>2014-06-09T17:58:30Z</time>
      </trkpt>
      <trkpt lat="59.9550884" lon="17.7235426">
        <ele>53.9712</ele>
        <time>2014-06-09T17:58:31Z</time>
      </trkpt>
      <trkpt lat="59.9551097" lon="17.7235201">
        <ele>53.9712</ele>
        <time>2014-06-09T17:58:32Z</time>
      </trkpt>
      <trkpt lat="59.9551457" lon="17.7235035">
        <ele>55.4131</ele>
        <time>2014-06-09T17:58:33Z</time>
      </trkpt>
      <trkpt lat="59.9551744" lon="17.7234748">
        <ele>55.8938</ele>
        <time>2014-06-09T17:58:34Z</time>
      </trkpt>
      <trkpt lat="59.9552019" lon="17.7234462">
        <ele>56.3745</ele>
        <time>2014-06-09T17:58:35Z</time>
      </trkpt>
      <trkpt lat="59.9552265" lon="17.7234115">
        <ele>57.3358</ele>
        <time>2014-06-09T17:58:36Z</time>
      </trkpt>
      <trkpt lat="59.955247" lon="17.7233833">
        <ele>57.8165</ele>
        <time>2014-06-09T17:58:37Z</time>
      </trkpt>
      <trkpt lat="59.9552738" lon="17.7233644">
        <ele>59.2584</ele>
        <time>2014-06-09T17:58:38Z</time>
      </trkpt>
      <trkpt lat="59.9552957" lon="17.7233492">
        <ele>59.7391</ele>
        <time>2014-06-09T17:58:39Z</time>
      </trkpt>
      <trkpt lat="59.9553203" lon="17.7233343">
        <ele>60.7003</ele>
        <time>2014-06-09T17:58:40Z</time>
      </trkpt>
      <trkpt lat="59.9553416" lon="17.7233323">
        <ele>60.2197</ele>
        <time>2014-06-09T17:58:41Z</time>
      </trkpt>
      <trkpt lat="59.9553645" lon="17.7233396">
        <ele>58.7777</ele>
        <time>2014-06-09T17:58:42Z</time>
      </trkpt>
      <trkpt lat="59.9553949" lon="17.7233468">
        <ele>58.2971</ele>
        <time>2014-06-09T17:58:43Z</time>
      </trkpt>
      <trkpt lat="59.9554226" lon="17.7233508">
        <ele>57.8165</ele>
        <time>2014-06-09T17:58:44Z</time>
      </trkpt>
      <trkpt lat="59.9554521" lon="17.7233587">
        <ele>57.8165</ele>
        <time>2014-06-09T17:58:45Z</time>
      </trkpt>
      <trkpt lat="59.95549" lon="17.7233716">
        <ele>59.2584</ele>
        <time>2014-06-09T17:58:46Z</time>
      </trkpt>
      <trkpt lat="59.9555173" lon="17.7233854">
        <ele>59.2584</ele>
        <time>2014-06-09T17:58:47Z</time>
      </trkpt>
      <trkpt lat="59.9555443" lon="17.7234096">
        <ele>59.7391</ele>
        <time>2014-06-09T17:58:48Z</time>
      </trkpt>
      <trkpt lat="59.9555701" lon="17.7234295">
        <ele>58.7777</ele>
        <time>2014-06-09T17:58:49Z</time>
      </trkpt>
      <trkpt lat="59.9555991" lon="17.7234587">
        <ele>59.2584</ele>
        <time>2014-06-09T17:58:50Z</time>
      </trkpt>
      <trkpt lat="59.9556297" lon="17.7234929">
        <ele>59.2584</ele>
        <time>2014-06-09T17:58:51Z</time>
      </trkpt>
      <trkpt lat="59.9556601" lon="17.7235405">
        <ele>59.7391</ele>
        <time>2014-06-09T17:58:52Z</time>
      </trkpt>
      <trkpt lat="59.9556848" lon="17.7235918">
        <ele>59.2584</ele>
        <time>2014-06-09T17:58:53Z</time>
      </trkpt>
      <trkpt lat="59.9557115" lon="17.7236227">
        <ele>59.2584</ele>
        <time>2014-06-09T17:58:54Z</time>
      </trkpt>
      <trkpt lat="59.9557365" lon="17.7236598">
        <ele>59.2584</ele>
        <time>2014-06-09T17:58:55Z</time>
      </trkpt>
      <trkpt lat="59.9557588" lon="17.723689">
        <ele>59.2584</ele>
        <time>2014-06-09T17:58:56Z</time>
      </trkpt>
      <trkpt lat="59.9557796" lon="17.7237058">
        <ele>59.2584</ele>
        <time>2014-06-09T17:58:57Z</time>
      </trkpt>
      <trkpt lat="59.9558121" lon="17.7237192">
        <ele>59.7391</ele>
        <time>2014-06-09T17:58:58Z</time>
      </trkpt>
      <trkpt lat="59.9558354" lon="17.7237367">
        <ele>59.2584</ele>
        <time>2014-06-09T17:58:59Z</time>
      </trkpt>
      <trkpt lat="59.9558567" lon="17.723739">
        <ele>58.7777</ele>
        <time>2014-06-09T17:59:00Z</time>
      </trkpt>
      <trkpt lat="59.9558722" lon="17.7237135">
        <ele>57.8165</ele>
        <time>2014-06-09T17:59:01Z</time>
      </trkpt>
      <trkpt lat="59.9558898" lon="17.7236871">
        <ele>56.8551</ele>
        <time>2014-06-09T17:59:02Z</time>
      </trkpt>
      <trkpt lat="59.9559068" lon="17.7236548">
        <ele>56.3745</ele>
        <time>2014-06-09T17:59:03Z</time>
      </trkpt>
      <trkpt lat="59.9559212" lon="17.7236259">
        <ele>55.8938</ele>
        <time>2014-06-09T17:59:04Z</time>
      </trkpt>
      <trkpt lat="59.9559373" lon="17.7235937">
        <ele>55.8938</ele>
        <time>2014-06-09T17:59:05Z</time>
      </trkpt>
      <trkpt lat="59.9559457" lon="17.7235471">
        <ele>55.4131</ele>
        <time>2014-06-09T17:59:06Z</time>
      </trkpt>
      <trkpt lat="59.9559572" lon="17.7234999">
        <ele>55.4131</ele>
        <time>2014-06-09T17:59:07Z</time>
      </trkpt>
      <trkpt lat="59.9559718" lon="17.7234544">
        <ele>54.9324</ele>
        <time>2014-06-09T17:59:08Z</time>
      </trkpt>
      <trkpt lat="59.9559861" lon="17.7234165">
        <ele>54.9324</ele>
        <time>2014-06-09T17:59:09Z</time>
      </trkpt>
      <trkpt lat="59.9559966" lon="17.723365">
        <ele>54.4518</ele>
        <time>2014-06-09T17:59:10Z</time>
      </trkpt>
      <trkpt lat="59.956003" lon="17.7233068">
        <ele>53.9712</ele>
        <time>2014-06-09T17:59:11Z</time>
      </trkpt>
      <trkpt lat="59.9560096" lon="17.7232494">
        <ele>53.9712</ele>
        <time>2014-06-09T17:59:12Z</time>
      </trkpt>
      <trkpt lat="59.956014" lon="17.7231912">
        <ele>53.0098</ele>
        <time>2014-06-09T17:59:13Z</time>
      </trkpt>
      <trkpt lat="59.9560224" lon="17.723139">
        <ele>52.5292</ele>
        <time>2014-06-09T17:59:14Z</time>
      </trkpt>
      <trkpt lat="59.9560343" lon="17.7230837">
        <ele>52.0486</ele>
        <time>2014-06-09T17:59:15Z</time>
      </trkpt>
      <trkpt lat="59.9560466" lon="17.7230354">
        <ele>51.0872</ele>
        <time>2014-06-09T17:59:16Z</time>
      </trkpt>
      <trkpt lat="59.9560566" lon="17.7229852">
        <ele>50.6066</ele>
        <time>2014-06-09T17:59:17Z</time>
      </trkpt>
      <trkpt lat="59.9560635" lon="17.7229335">
        <ele>50.6066</ele>
        <time>2014-06-09T17:59:18Z</time>
      </trkpt>
      <trkpt lat="59.9560684" lon="17.7228852">
        <ele>50.6066</ele>
        <time>2014-06-09T17:59:19Z</time>
      </trkpt>
      <trkpt lat="59.9560685" lon="17.7228311">
        <ele>51.0872</ele>
        <time>2014-06-09T17:59:20Z</time>
      </trkpt>
      <trkpt lat="59.9560662" lon="17.7227619">
        <ele>52.0486</ele>
        <time>2014-06-09T17:59:21Z</time>
      </trkpt>
      <trkpt lat="59.9560566" lon="17.7226945">
        <ele>53.0098</ele>
        <time>2014-06-09T17:59:22Z</time>
      </trkpt>
      <trkpt lat="59.9560486" lon="17.72263">
        <ele>53.4905</ele>
        <time>2014-06-09T17:59:23Z</time>
      </trkpt>
      <trkpt lat="59.9560435" lon="17.7225758">
        <ele>53.9712</ele>
        <time>2014-06-09T17:59:24Z</time>
      </trkpt>
      <trkpt lat="59.956042" lon="17.7225335">
        <ele>54.4518</ele>
        <time>2014-06-09T17:59:25Z</time>
      </trkpt>
      <trkpt lat="59.9560238" lon="17.722476">
        <ele>55.8938</ele>
        <time>2014-06-09T17:59:26Z</time>
      </trkpt>
      <trkpt lat="59.9560064" lon="17.7224123">
        <ele>56.3745</ele>
        <time>2014-06-09T17:59:27Z</time>
      </trkpt>
      <trkpt lat="59.9559886" lon="17.7223532">
        <ele>56.3745</ele>
        <time>2014-06-09T17:59:28Z</time>
      </trkpt>
      <trkpt lat="59.9559665" lon="17.7222927">
        <ele>57.3358</ele>
        <time>2014-06-09T17:59:29Z</time>
      </trkpt>
      <trkpt lat="59.9559488" lon="17.7222414">
        <ele>57.8165</ele>
        <time>2014-06-09T17:59:30Z</time>
      </trkpt>
      <trkpt lat="59.955937" lon="17.7221921">
        <ele>58.2971</ele>
        <time>2014-06-09T17:59:31Z</time>
      </trkpt>
      <trkpt lat="59.9559328" lon="17.7221414">
        <ele>58.7777</ele>
        <time>2014-06-09T17:59:32Z</time>
      </trkpt>
      <trkpt lat="59.9559303" lon="17.7220833">
        <ele>59.2584</ele>
        <time>2014-06-09T17:59:33Z</time>
      </trkpt>
      <trkpt lat="59.9559292" lon="17.722028">
        <ele>59.2584</ele>
        <time>2014-06-09T17:59:34Z</time>
      </trkpt>
      <trkpt lat="59.955927" lon="17.7219772">
        <ele>59.2584</ele>
        <time>2014-06-09T17:59:35Z</time>
      </trkpt>
      <trkpt lat="59.9559281" lon="17.7219234">
        <ele>60.2197</ele>
        <time>2014-06-09T17:59:36Z</time>
      </trkpt>
      <trkpt lat="59.9559311" lon="17.7218708">
        <ele>59.7391</ele>
        <time>2014-06-09T17:59:37Z</time>
      </trkpt>
      <trkpt lat="59.9559307" lon="17.7218171">
        <ele>59.7391</ele>
        <time>2014-06-09T17:59:38Z</time>
      </trkpt>
      <trkpt lat="59.9559355" lon="17.7217682">
        <ele>60.2197</ele>
        <time>2014-06-09T17:59:39Z</time>
      </trkpt>
      <trkpt lat="59.955937" lon="17.7217067">
        <ele>60.7003</ele>
        <time>2014-06-09T17:59:40Z</time>
      </trkpt>
      <trkpt lat="59.9559456" lon="17.7216555">
        <ele>60.2197</ele>
        <time>2014-06-09T17:59:41Z</time>
      </trkpt>
      <trkpt lat="59.9559436" lon="17.7216055">
        <ele>59.7391</ele>
        <time>2014-06-09T17:59:42Z</time>
      </trkpt>
      <trkpt lat="59.9559433" lon="17.7215497">
        <ele>59.2584</ele>
        <time>2014-06-09T17:59:43Z</time>
      </trkpt>
      <trkpt lat="59.9559379" lon="17.7215">
        <ele>59.2584</ele>
        <time>2014-06-09T17:59:44Z</time>
      </trkpt>
      <trkpt lat="59.9559365" lon="17.7214413">
        <ele>58.7777</ele>
        <time>2014-06-09T17:59:45Z</time>
      </trkpt>
      <trkpt lat="59.955938" lon="17.7213799">
        <ele>58.7777</ele>
        <time>2014-06-09T17:59:46Z</time>
      </trkpt>
      <trkpt lat="59.9559367" lon="17.7213258">
        <ele>58.2971</ele>
        <time>2014-06-09T17:59:47Z</time>
      </trkpt>
      <trkpt lat="59.9559338" lon="17.7212793">
        <ele>57.8165</ele>
        <time>2014-06-09T17:59:48Z</time>
      </trkpt>
      <trkpt lat="59.9559256" lon="17.7212338">
        <ele>56.8551</ele>
        <time>2014-06-09T17:59:49Z</time>
      </trkpt>
      <trkpt lat="59.9559136" lon="17.7211996">
        <ele>56.3745</ele>
        <time>2014-06-09T17:59:50Z</time>
      </trkpt>
      <trkpt lat="59.9558899" lon="17.7211768">
        <ele>56.3745</ele>
        <time>2014-06-09T17:59:51Z</time>
      </trkpt>
      <trkpt lat="59.9558728" lon="17.7211665">
        <ele>55.8938</ele>
        <time>2014-06-09T17:59:52Z</time>
      </trkpt>
      <trkpt lat="59.9558534" lon="17.7211634">
        <ele>55.8938</ele>
        <time>2014-06-09T17:59:53Z</time>
      </trkpt>
      <trkpt lat="59.9558295" lon="17.721168">
        <ele>54.9324</ele>
        <time>2014-06-09T17:59:54Z</time>
      </trkpt>
      <trkpt lat="59.9558062" lon="17.7211825">
        <ele>54.4518</ele>
        <time>2014-06-09T17:59:55Z</time>
      </trkpt>
      <trkpt lat="59.9557826" lon="17.7212027">
        <ele>54.4518</ele>
        <time>2014-06-09T17:59:56Z</time>
      </trkpt>
      <trkpt lat="59.9557557" lon="17.7212064">
        <ele>53.9712</ele>
        <time>2014-06-09T17:59:57Z</time>
      </trkpt>
      <trkpt lat="59.9557304" lon="17.721214">
        <ele>53.4905</ele>
        <time>2014-06-09T17:59:58Z</time>
      </trkpt>
      <trkpt lat="59.9557094" lon="17.7212267">
        <ele>53.4905</ele>
        <time>2014-06-09T17:59:59Z</time>
      </trkpt>
      <trkpt lat="59.9556821" lon="17.7212452">
        <ele>53.9712</ele>
        <time>2014-06-09T18:00:00Z</time>
      </trkpt>
      <trkpt lat="59.9556582" lon="17.721266">
        <ele>53.9712</ele>
        <time>2014-06-09T18:00:01Z</time>
      </trkpt>
      <trkpt lat="59.9556302" lon="17.7212878">
        <ele>53.4905</ele>
        <time>2014-06-09T18:00:02Z</time>
      </trkpt>
      <trkpt lat="59.9555987" lon="17.7213049">
        <ele>53.0098</ele>
        <time>2014-06-09T18:00:03Z</time>
      </trkpt>
      <trkpt lat="59.9555608" lon="17.7213222">
        <ele>53.4905</ele>
        <time>2014-06-09T18:00:04Z</time>
      </trkpt>
      <trkpt lat="59.9555241" lon="17.7213312">
        <ele>53.9712</ele>
        <time>2014-06-09T18:00:05Z</time>
      </trkpt>
      <trkpt lat="59.9554871" lon="17.7213401">
        <ele>53.9712</ele>
        <time>2014-06-09T18:00:06Z</time>
      </trkpt>
      <trkpt lat="59.9554506" lon="17.72134">
        <ele>54.4518</ele>
        <time>2014-06-09T18:00:07Z</time>
      </trkpt>
      <trkpt lat="59.955418" lon="17.7213406">
        <ele>54.4518</ele>
        <time>2014-06-09T18:00:08Z</time>
      </trkpt>
      <trkpt lat="59.9553853" lon="17.7213484">
        <ele>54.9324</ele>
        <time>2014-06-09T18:00:09Z</time>
      </trkpt>
      <trkpt lat="59.95535" lon="17.7213487">
        <ele>55.4131</ele>
        <time>2014-06-09T18:00:10Z</time>
      </trkpt>
      <trkpt lat="59.9553199" lon="17.7213363">
        <ele>54.9324</ele>
        <time>2014-06-09T18:00:11Z</time>
      </trkpt>
      <trkpt lat="59.95529" lon="17.721327">
        <ele>54.9324</ele>
        <time>2014-06-09T18:00:12Z</time>
      </trkpt>
      <trkpt lat="59.9552703" lon="17.7213097">
        <ele>53.9712</ele>
        <time>2014-06-09T18:00:13Z</time>
      </trkpt>
      <trkpt lat="59.9552467" lon="17.7213005">
        <ele>53.9712</ele>
        <time>2014-06-09T18:00:14Z</time>
      </trkpt>
      <trkpt lat="59.9552268" lon="17.7212909">
        <ele>53.4905</ele>
        <time>2014-06-09T18:00:15Z</time>
      </trkpt>
      <trkpt lat="59.9552036" lon="17.7212909">
        <ele>53.4905</ele>
        <time>2014-06-09T18:00:16Z</time>
      </trkpt>
      <trkpt lat="59.9551831" lon="17.7212891">
        <ele>53.0098</ele>
        <time>2014-06-09T18:00:17Z</time>
      </trkpt>
      <trkpt lat="59.9551584" lon="17.7212976">
        <ele>52.5292</ele>
        <time>2014-06-09T18:00:18Z</time>
      </trkpt>
      <trkpt lat="59.9551377" lon="17.7212872">
        <ele>52.0486</ele>
        <time>2014-06-09T18:00:19Z</time>
      </trkpt>
      <trkpt lat="59.9551137" lon="17.7212856">
        <ele>51.5679</ele>
        <time>2014-06-09T18:00:20Z</time>
      </trkpt>
      <trkpt lat="59.9550879" lon="17.7212903">
        <ele>51.5679</ele>
        <time>2014-06-09T18:00:21Z</time>
      </trkpt>
      <trkpt lat="59.9550613" lon="17.7212947">
        <ele>52.0486</ele>
        <time>2014-06-09T18:00:22Z</time>
      </trkpt>
      <trkpt lat="59.9550409" lon="17.7212954">
        <ele>51.5679</ele>
        <time>2014-06-09T18:00:23Z</time>
      </trkpt>
      <trkpt lat="59.9550201" lon="17.7213044">
        <ele>51.5679</ele>
        <time>2014-06-09T18:00:24Z</time>
      </trkpt>
      <trkpt lat="59.9550004" lon="17.7213022">
        <ele>51.0872</ele>
        <time>2014-06-09T18:00:25Z</time>
      </trkpt>
      <trkpt lat="59.9549739" lon="17.7212976">
        <ele>50.6066</ele>
        <time>2014-06-09T18:00:26Z</time>
      </trkpt>
      <trkpt lat="59.9549459" lon="17.7212824">
        <ele>50.6066</ele>
        <time>2014-06-09T18:00:27Z</time>
      </trkpt>
      <trkpt lat="59.9549183" lon="17.7212721">
        <ele>51.0872</ele>
        <time>2014-06-09T18:00:28Z</time>
      </trkpt>
      <trkpt lat="59.954893" lon="17.7212556">
        <ele>51.0872</ele>
        <time>2014-06-09T18:00:29Z</time>
      </trkpt>
      <trkpt lat="59.9548709" lon="17.7212229">
        <ele>51.0872</ele>
        <time>2014-06-09T18:00:30Z</time>
      </trkpt>
      <trkpt lat="59.9548526" lon="17.721189">
        <ele>51.0872</ele>
        <time>2014-06-09T18:00:31Z</time>
      </trkpt>
      <trkpt lat="59.9548422" lon="17.7211597">
        <ele>50.6066</ele>
        <time>2014-06-09T18:00:32Z</time>
      </trkpt>
      <trkpt lat="59.9548294" lon="17.7211183">
        <ele>50.6066</ele>
        <time>2014-06-09T18:00:33Z</time>
      </trkpt>
      <trkpt lat="59.9548155" lon="17.7210653">
        <ele>50.126</ele>
        <time>2014-06-09T18:00:34Z</time>
      </trkpt>
      <trkpt lat="59.9548046" lon="17.7210105">
        <ele>50.6066</ele>
        <time>2014-06-09T18:00:35Z</time>
      </trkpt>
      <trkpt lat="59.9548034" lon="17.7209591">
        <ele>50.126</ele>
        <time>2014-06-09T18:00:36Z</time>
      </trkpt>
      <trkpt lat="59.9548014" lon="17.720909">
        <ele>50.6066</ele>
        <time>2014-06-09T18:00:37Z</time>
      </trkpt>
      <trkpt lat="59.9547999" lon="17.7208618">
        <ele>50.6066</ele>
        <time>2014-06-09T18:00:38Z</time>
      </trkpt>
      <trkpt lat="59.9547983" lon="17.7208136">
        <ele>51.0872</ele>
        <time>2014-06-09T18:00:39Z</time>
      </trkpt>
      <trkpt lat="59.9548035" lon="17.7207645">
        <ele>51.5679</ele>
        <time>2014-06-09T18:00:40Z</time>
      </trkpt>
      <trkpt lat="59.9548144" lon="17.7207182">
        <ele>52.0486</ele>
        <time>2014-06-09T18:00:41Z</time>
      </trkpt>
      <trkpt lat="59.9548325" lon="17.7206816">
        <ele>52.0486</ele>
        <time>2014-06-09T18:00:42Z</time>
      </trkpt>
      <trkpt lat="59.9548479" lon="17.7206485">
        <ele>51.5679</ele>
        <time>2014-06-09T18:00:43Z</time>
      </trkpt>
      <trkpt lat="59.9548588" lon="17.7206074">
        <ele>52.5292</ele>
        <time>2014-06-09T18:00:44Z</time>
      </trkpt>
      <trkpt lat="59.9548693" lon="17.7205691">
        <ele>53.0098</ele>
        <time>2014-06-09T18:00:45Z</time>
      </trkpt>
      <trkpt lat="59.9548862" lon="17.720536">
        <ele>53.0098</ele>
        <time>2014-06-09T18:00:46Z</time>
      </trkpt>
      <trkpt lat="59.9549041" lon="17.7204973">
        <ele>53.0098</ele>
        <time>2014-06-09T18:00:47Z</time>
      </trkpt>
      <trkpt lat="59.954924" lon="17.7204599">
        <ele>53.0098</ele>
        <time>2014-06-09T18:00:48Z</time>
      </trkpt>
      <trkpt lat="59.9549408" lon="17.7204346">
        <ele>52.5292</ele>
        <time>2014-06-09T18:00:49Z</time>
      </trkpt>
      <trkpt lat="59.9549574" lon="17.7204132">
        <ele>53.0098</ele>
        <time>2014-06-09T18:00:50Z</time>
      </trkpt>
      <trkpt lat="59.9549775" lon="17.7203878">
        <ele>53.0098</ele>
        <time>2014-06-09T18:00:51Z</time>
      </trkpt>
      <trkpt lat="59.9549976" lon="17.7203547">
        <ele>53.4905</ele>
        <time>2014-06-09T18:00:52Z</time>
      </trkpt>
      <trkpt lat="59.9550184" lon="17.7203185">
        <ele>53.9712</ele>
        <time>2014-06-09T18:00:53Z</time>
      </trkpt>
      <trkpt lat="59.9550336" lon="17.7202786">
        <ele>54.4518</ele>
        <time>2014-06-09T18:00:54Z</time>
      </trkpt>
      <trkpt lat="59.9550465" lon="17.7202469">
        <ele>54.9324</ele>
        <time>2014-06-09T18:00:55Z</time>
      </trkpt>
      <trkpt lat="59.955061" lon="17.720221">
        <ele>54.9324</ele>
        <time>2014-06-09T18:00:56Z</time>
      </trkpt>
      <trkpt lat="59.9550828" lon="17.7201916">
        <ele>54.9324</ele>
        <time>2014-06-09T18:00:57Z</time>
      </trkpt>
      <trkpt lat="59.9551045" lon="17.7201735">
        <ele>54.9324</ele>
        <time>2014-06-09T18:00:58Z</time>
      </trkpt>
      <trkpt lat="59.9551276" lon="17.7201578">
        <ele>54.9324</ele>
        <time>2014-06-09T18:00:59Z</time>
      </trkpt>
      <trkpt lat="59.9551458" lon="17.7201382">
        <ele>54.9324</ele>
        <time>2014-06-09T18:01:00Z</time>
      </trkpt>
      <trkpt lat="59.9551644" lon="17.7201214">
        <ele>55.4131</ele>
        <time>2014-06-09T18:01:01Z</time>
      </trkpt>
      <trkpt lat="59.9551841" lon="17.720104">
        <ele>54.9324</ele>
        <time>2014-06-09T18:01:02Z</time>
      </trkpt>
      <trkpt lat="59.9552033" lon="17.7200772">
        <ele>54.9324</ele>
        <time>2014-06-09T18:01:03Z</time>
      </trkpt>
      <trkpt lat="59.9552229" lon="17.7200465">
        <ele>54.9324</ele>
        <time>2014-06-09T18:01:04Z</time>
      </trkpt>
      <trkpt lat="59.9552439" lon="17.7200194">
        <ele>54.9324</ele>
        <time>2014-06-09T18:01:05Z</time>
      </trkpt>
      <trkpt lat="59.9552644" lon="17.7200066">
        <ele>54.9324</ele>
        <time>2014-06-09T18:01:06Z</time>
      </trkpt>
      <trkpt lat="59.9552847" lon="17.719994">
        <ele>54.9324</ele>
        <time>2014-06-09T18:01:07Z</time>
      </trkpt>
      <trkpt lat="59.9553012" lon="17.7199767">
        <ele>55.4131</ele>
        <time>2014-06-09T18:01:08Z</time>
      </trkpt>
      <trkpt lat="59.9553172" lon="17.7199553">
        <ele>55.4131</ele>
        <time>2014-06-09T18:01:09Z</time>
      </trkpt>
      <trkpt lat="59.9553371" lon="17.7199334">
        <ele>55.8938</ele>
        <time>2014-06-09T18:01:10Z</time>
      </trkpt>
      <trkpt lat="59.9553564" lon="17.7199023">
        <ele>55.8938</ele>
        <time>2014-06-09T18:01:11Z</time>
      </trkpt>
      <trkpt lat="59.9553816" lon="17.7198761">
        <ele>55.8938</ele>
        <time>2014-06-09T18:01:12Z</time>
      </trkpt>
      <trkpt lat="59.9554074" lon="17.7198575">
        <ele>55.4131</ele>
        <time>2014-06-09T18:01:13Z</time>
      </trkpt>
      <trkpt lat="59.9554318" lon="17.7198351">
        <ele>55.4131</ele>
        <time>2014-06-09T18:01:14Z</time>
      </trkpt>
      <trkpt lat="59.9554599" lon="17.7198134">
        <ele>55.4131</ele>
        <time>2014-06-09T18:01:15Z</time>
      </trkpt>
      <trkpt lat="59.9554893" lon="17.7198036">
        <ele>55.4131</ele>
        <time>2014-06-09T18:01:16Z</time>
      </trkpt>
      <trkpt lat="59.9555197" lon="17.7197944">
        <ele>55.8938</ele>
        <time>2014-06-09T18:01:17Z</time>
      </trkpt>
      <trkpt lat="59.9555444" lon="17.7197886">
        <ele>55.8938</ele>
        <time>2014-06-09T18:01:18Z</time>
      </trkpt>
      <trkpt lat="59.9555686" lon="17.7197754">
        <ele>55.8938</ele>
        <time>2014-06-09T18:01:19Z</time>
      </trkpt>
      <trkpt lat="59.9555931" lon="17.719755">
        <ele>55.8938</ele>
        <time>2014-06-09T18:01:20Z</time>
      </trkpt>
      <trkpt lat="59.9556204" lon="17.719734">
        <ele>55.4131</ele>
        <time>2014-06-09T18:01:21Z</time>
      </trkpt>
      <trkpt lat="59.9556438" lon="17.7197066">
        <ele>54.9324</ele>
        <time>2014-06-09T18:01:22Z</time>
      </trkpt>
      <trkpt lat="59.9556702" lon="17.7196721">
        <ele>55.4131</ele>
        <time>2014-06-09T18:01:23Z</time>
      </trkpt>
      <trkpt lat="59.9556961" lon="17.7196466">
        <ele>54.9324</ele>
        <time>2014-06-09T18:01:24Z</time>
      </trkpt>
      <trkpt lat="59.955719" lon="17.7196233">
        <ele>54.9324</ele>
        <time>2014-06-09T18:01:25Z</time>
      </trkpt>
      <trkpt lat="59.9557438" lon="17.7196031">
        <ele>54.9324</ele>
        <time>2014-06-09T18:01:26Z</time>
      </trkpt>
      <trkpt lat="59.9557702" lon="17.7195777">
        <ele>54.9324</ele>
        <time>2014-06-09T18:01:27Z</time>
      </trkpt>
      <trkpt lat="59.9557969" lon="17.7195524">
        <ele>54.9324</ele>
        <time>2014-06-09T18:01:28Z</time>
      </trkpt>
      <trkpt lat="59.9558212" lon="17.719527">
        <ele>54.9324</ele>
        <time>2014-06-09T18:01:29Z</time>
      </trkpt>
      <trkpt lat="59.9558423" lon="17.719502">
        <ele>55.4131</ele>
        <time>2014-06-09T18:01:30Z</time>
      </trkpt>
      <trkpt lat="59.9558644" lon="17.7194756">
        <ele>55.8938</ele>
        <time>2014-06-09T18:01:31Z</time>
      </trkpt>
      <trkpt lat="59.9558795" lon="17.7194512">
        <ele>55.8938</ele>
        <time>2014-06-09T18:01:32Z</time>
      </trkpt>
      <trkpt lat="59.9558979" lon="17.7194193">
        <ele>55.8938</ele>
        <time>2014-06-09T18:01:33Z</time>
      </trkpt>
      <trkpt lat="59.9559214" lon="17.7193912">
        <ele>56.3745</ele>
        <time>2014-06-09T18:01:34Z</time>
      </trkpt>
      <trkpt lat="59.9559485" lon="17.7193669">
        <ele>56.8551</ele>
        <time>2014-06-09T18:01:35Z</time>
      </trkpt>
      <trkpt lat="59.9559771" lon="17.7193486">
        <ele>56.8551</ele>
        <time>2014-06-09T18:01:36Z</time>
      </trkpt>
      <trkpt lat="59.9560039" lon="17.7193237">
        <ele>57.3358</ele>
        <time>2014-06-09T18:01:37Z</time>
      </trkpt>
      <trkpt lat="59.9560266" lon="17.7192939">
        <ele>57.8165</ele>
        <time>2014-06-09T18:01:38Z</time>
      </trkpt>
      <trkpt lat="59.9560436" lon="17.7192585">
        <ele>57.8165</ele>
        <time>2014-06-09T18:01:39Z</time>
      </trkpt>
      <trkpt lat="59.9560633" lon="17.7192207">
        <ele>58.2971</ele>
        <time>2014-06-09T18:01:40Z</time>
      </trkpt>
      <trkpt lat="59.9560794" lon="17.7191859">
        <ele>57.8165</ele>
        <time>2014-06-09T18:01:41Z</time>
      </trkpt>
      <trkpt lat="59.9560919" lon="17.7191358">
        <ele>58.7777</ele>
        <time>2014-06-09T18:01:42Z</time>
      </trkpt>
      <trkpt lat="59.956112" lon="17.7190862">
        <ele>58.7777</ele>
        <time>2014-06-09T18:01:43Z</time>
      </trkpt>
      <trkpt lat="59.956132" lon="17.7190433">
        <ele>58.7777</ele>
        <time>2014-06-09T18:01:44Z</time>
      </trkpt>
      <trkpt lat="59.9561451" lon="17.7190023">
        <ele>59.2584</ele>
        <time>2014-06-09T18:01:45Z</time>
      </trkpt>
      <trkpt lat="59.956153" lon="17.7189539">
        <ele>59.2584</ele>
        <time>2014-06-09T18:01:46Z</time>
      </trkpt>
      <trkpt lat="59.9561607" lon="17.7189078">
        <ele>59.7391</ele>
        <time>2014-06-09T18:01:47Z</time>
      </trkpt>
      <trkpt lat="59.9561688" lon="17.7188634">
        <ele>59.7391</ele>
        <time>2014-06-09T18:01:48Z</time>
      </trkpt>
      <trkpt lat="59.9561764" lon="17.7188156">
        <ele>59.7391</ele>
        <time>2014-06-09T18:01:49Z</time>
      </trkpt>
      <trkpt lat="59.9561794" lon="17.7187665">
        <ele>59.2584</ele>
        <time>2014-06-09T18:01:50Z</time>
      </trkpt>
      <trkpt lat="59.9561755" lon="17.7187136">
        <ele>59.2584</ele>
        <time>2014-06-09T18:01:51Z</time>
      </trkpt>
      <trkpt lat="59.956169" lon="17.7186541">
        <ele>59.7391</ele>
        <time>2014-06-09T18:01:52Z</time>
      </trkpt>
      <trkpt lat="59.9561638" lon="17.7185992">
        <ele>59.2584</ele>
        <time>2014-06-09T18:01:53Z</time>
      </trkpt>
      <trkpt lat="59.9561569" lon="17.7185494">
        <ele>58.2971</ele>
        <time>2014-06-09T18:01:54Z</time>
      </trkpt>
      <trkpt lat="59.9561427" lon="17.7185042">
        <ele>58.2971</ele>
        <time>2014-06-09T18:01:55Z</time>
      </trkpt>
      <trkpt lat="59.9561277" lon="17.7184577">
        <ele>57.8165</ele>
        <time>2014-06-09T18:01:56Z</time>
      </trkpt>
      <trkpt lat="59.9561137" lon="17.7184172">
        <ele>57.3358</ele>
        <time>2014-06-09T18:01:57Z</time>
      </trkpt>
      <trkpt lat="59.9560978" lon="17.7183783">
        <ele>56.8551</ele>
        <time>2014-06-09T18:01:58Z</time>
      </trkpt>
      <trkpt lat="59.9560825" lon="17.7183355">
        <ele>56.3745</ele>
        <time>2014-06-09T18:01:59Z</time>
      </trkpt>
      <trkpt lat="59.9560702" lon="17.7182916">
        <ele>55.8938</ele>
        <time>2014-06-09T18:02:00Z</time>
      </trkpt>
      <trkpt lat="59.9560566" lon="17.7182563">
        <ele>55.4131</ele>
        <time>2014-06-09T18:02:01Z</time>
      </trkpt>
      <trkpt lat="59.9560436" lon="17.718216">
        <ele>55.4131</ele>
        <time>2014-06-09T18:02:02Z</time>
      </trkpt>
      <trkpt lat="59.9560286" lon="17.7181602">
        <ele>54.9324</ele>
        <time>2014-06-09T18:02:03Z</time>
      </trkpt>
      <trkpt lat="59.9560148" lon="17.7181188">
        <ele>54.9324</ele>
        <time>2014-06-09T18:02:04Z</time>
      </trkpt>
      <trkpt lat="59.9559997" lon="17.7180794">
        <ele>54.4518</ele>
        <time>2014-06-09T18:02:05Z</time>
      </trkpt>
      <trkpt lat="59.955978" lon="17.7180223">
        <ele>54.4518</ele>
        <time>2014-06-09T18:02:06Z</time>
      </trkpt>
      <trkpt lat="59.9559588" lon="17.717977">
        <ele>54.4518</ele>
        <time>2014-06-09T18:02:07Z</time>
      </trkpt>
      <trkpt lat="59.9559424" lon="17.7179474">
        <ele>54.4518</ele>
        <time>2014-06-09T18:02:08Z</time>
      </trkpt>
      <trkpt lat="59.9559297" lon="17.7179134">
        <ele>54.4518</ele>
        <time>2014-06-09T18:02:09Z</time>
      </trkpt>
      <trkpt lat="59.9559191" lon="17.7178832">
        <ele>54.4518</ele>
        <time>2014-06-09T18:02:10Z</time>
      </trkpt>
      <trkpt lat="59.9559022" lon="17.7178476">
        <ele>53.9712</ele>
        <time>2014-06-09T18:02:11Z</time>
      </trkpt>
      <trkpt lat="59.9558831" lon="17.7178065">
        <ele>53.4905</ele>
        <time>2014-06-09T18:02:12Z</time>
      </trkpt>
      <trkpt lat="59.9558675" lon="17.7177658">
        <ele>53.4905</ele>
        <time>2014-06-09T18:02:13Z</time>
      </trkpt>
      <trkpt lat="59.9558546" lon="17.7177191">
        <ele>53.0098</ele>
        <time>2014-06-09T18:02:14Z</time>
      </trkpt>
      <trkpt lat="59.955844" lon="17.7176663">
        <ele>52.5292</ele>
        <time>2014-06-09T18:02:15Z</time>
      </trkpt>
      <trkpt lat="59.955834" lon="17.7176196">
        <ele>52.0486</ele>
        <time>2014-06-09T18:02:16Z</time>
      </trkpt>
      <trkpt lat="59.9558223" lon="17.7175803">
        <ele>51.5679</ele>
        <time>2014-06-09T18:02:17Z</time>
      </trkpt>
      <trkpt lat="59.9558076" lon="17.7175383">
        <ele>51.0872</ele>
        <time>2014-06-09T18:02:18Z</time>
      </trkpt>
      <trkpt lat="59.9557919" lon="17.7175009">
        <ele>50.6066</ele>
        <time>2014-06-09T18:02:19Z</time>
      </trkpt>
      <trkpt lat="59.9557727" lon="17.7174667">
        <ele>50.6066</ele>
        <time>2014-06-09T18:02:20Z</time>
      </trkpt>
      <trkpt lat="59.9557529" lon="17.7174298">
        <ele>50.6066</ele>
        <time>2014-06-09T18:02:21Z</time>
      </trkpt>
      <trkpt lat="59.955736" lon="17.7173964">
        <ele>50.6066</ele>
        <time>2014-06-09T18:02:22Z</time>
      </trkpt>
      <trkpt lat="59.9557205" lon="17.7173578">
        <ele>50.6066</ele>
        <time>2014-06-09T18:02:23Z</time>
      </trkpt>
      <trkpt lat="59.9557029" lon="17.7173185">
        <ele>51.0872</ele>
        <time>2014-06-09T18:02:24Z</time>
      </trkpt>
      <trkpt lat="59.9556791" lon="17.717276">
        <ele>51.0872</ele>
        <time>2014-06-09T18:02:25Z</time>
      </trkpt>
      <trkpt lat="59.9556535" lon="17.7172191">
        <ele>51.5679</ele>
        <time>2014-06-09T18:02:26Z</time>
      </trkpt>
      <trkpt lat="59.9556406" lon="17.7171709">
        <ele>51.0872</ele>
        <time>2014-06-09T18:02:27Z</time>
      </trkpt>
      <trkpt lat="59.9556291" lon="17.7171247">
        <ele>50.6066</ele>
        <time>2014-06-09T18:02:28Z</time>
      </trkpt>
      <trkpt lat="59.95562" lon="17.7170696">
        <ele>50.6066</ele>
        <time>2014-06-09T18:02:29Z</time>
      </trkpt>
      <trkpt lat="59.9556083" lon="17.7170113">
        <ele>50.6066</ele>
        <time>2014-06-09T18:02:30Z</time>
      </trkpt>
      <trkpt lat="59.9555964" lon="17.7169469">
        <ele>50.6066</ele>
        <time>2014-06-09T18:02:31Z</time>
      </trkpt>
      <trkpt lat="59.955589" lon="17.7168806">
        <ele>50.126</ele>
        <time>2014-06-09T18:02:32Z</time>
      </trkpt>
      <trkpt lat="59.9555829" lon="17.7168156">
        <ele>49.6453</ele>
        <time>2014-06-09T18:02:33Z</time>
      </trkpt>
      <trkpt lat="59.9555733" lon="17.7167534">
        <ele>50.126</ele>
        <time>2014-06-09T18:02:34Z</time>
      </trkpt>
      <trkpt lat="59.9555671" lon="17.7167017">
        <ele>50.126</ele>
        <time>2014-06-09T18:02:35Z</time>
      </trkpt>
      <trkpt lat="59.9555601" lon="17.7166418">
        <ele>50.126</ele>
        <time>2014-06-09T18:02:36Z</time>
      </trkpt>
      <trkpt lat="59.9555552" lon="17.71658">
        <ele>50.6066</ele>
        <time>2014-06-09T18:02:37Z</time>
      </trkpt>
      <trkpt lat="59.9555491" lon="17.7165272">
        <ele>50.6066</ele>
        <time>2014-06-09T18:02:38Z</time>
      </trkpt>
      <trkpt lat="59.9555509" lon="17.7164805">
        <ele>51.0872</ele>
        <time>2014-06-09T18:02:39Z</time>
      </trkpt>
      <trkpt lat="59.9555571" lon="17.7164302">
        <ele>50.6066</ele>
        <time>2014-06-09T18:02:40Z</time>
      </trkpt>
      <trkpt lat="59.9555562" lon="17.7163795">
        <ele>51.0872</ele>
        <time>2014-06-09T18:02:41Z</time>
      </trkpt>
      <trkpt lat="59.9555536" lon="17.7163256">
        <ele>51.5679</ele>
        <time>2014-06-09T18:02:42Z</time>
      </trkpt>
      <trkpt lat="59.9555412" lon="17.7162625">
        <ele>52.0486</ele>
        <time>2014-06-09T18:02:43Z</time>
      </trkpt>
      <trkpt lat="59.9555338" lon="17.7161931">
        <ele>52.0486</ele>
        <time>2014-06-09T18:02:44Z</time>
      </trkpt>
      <trkpt lat="59.9555236" lon="17.7161345">
        <ele>52.0486</ele>
        <time>2014-06-09T18:02:45Z</time>
      </trkpt>
      <trkpt lat="59.9555087" lon="17.716077">
        <ele>53.0098</ele>
        <time>2014-06-09T18:02:46Z</time>
      </trkpt>
      <trkpt lat="59.9554978" lon="17.71602">
        <ele>52.5292</ele>
        <time>2014-06-09T18:02:47Z</time>
      </trkpt>
      <trkpt lat="59.9554873" lon="17.7159706">
        <ele>52.0486</ele>
        <time>2014-06-09T18:02:48Z</time>
      </trkpt>
      <trkpt lat="59.9554728" lon="17.7159232">
        <ele>52.0486</ele>
        <time>2014-06-09T18:02:49Z</time>
      </trkpt>
      <trkpt lat="59.9554598" lon="17.715866">
        <ele>52.0486</ele>
        <time>2014-06-09T18:02:50Z</time>
      </trkpt>
      <trkpt lat="59.9554529" lon="17.7158096">
        <ele>52.0486</ele>
        <time>2014-06-09T18:02:51Z</time>
      </trkpt>
      <trkpt lat="59.955447" lon="17.7157572">
        <ele>51.5679</ele>
        <time>2014-06-09T18:02:52Z</time>
      </trkpt>
      <trkpt lat="59.955447" lon="17.7157035">
        <ele>51.0872</ele>
        <time>2014-06-09T18:02:53Z</time>
      </trkpt>
      <trkpt lat="59.9554496" lon="17.7156475">
        <ele>50.6066</ele>
        <time>2014-06-09T18:02:54Z</time>
      </trkpt>
      <trkpt lat="59.9554438" lon="17.7155892">
        <ele>50.126</ele>
        <time>2014-06-09T18:02:55Z</time>
      </trkpt>
      <trkpt lat="59.9554397" lon="17.7155358">
        <ele>50.126</ele>
        <time>2014-06-09T18:02:56Z</time>
      </trkpt>
      <trkpt lat="59.9554424" lon="17.7154853">
        <ele>49.6453</ele>
        <time>2014-06-09T18:02:57Z</time>
      </trkpt>
      <trkpt lat="59.9554428" lon="17.7154295">
        <ele>49.1646</ele>
        <time>2014-06-09T18:02:58Z</time>
      </trkpt>
      <trkpt lat="59.9554386" lon="17.7153645">
        <ele>49.1646</ele>
        <time>2014-06-09T18:02:59Z</time>
      </trkpt>
      <trkpt lat="59.955437" lon="17.7153088">
        <ele>48.2034</ele>
        <time>2014-06-09T18:03:00Z</time>
      </trkpt>
      <trkpt lat="59.9554366" lon="17.7152626">
        <ele>47.7225</ele>
        <time>2014-06-09T18:03:01Z</time>
      </trkpt>
      <trkpt lat="59.9554312" lon="17.7152081">
        <ele>47.7225</ele>
        <time>2014-06-09T18:03:02Z</time>
      </trkpt>
      <trkpt lat="59.9554319" lon="17.7151605">
        <ele>47.7225</ele>
        <time>2014-06-09T18:03:03Z</time>
      </trkpt>
      <trkpt lat="59.9554334" lon="17.7151192">
        <ele>47.2418</ele>
        <time>2014-06-09T18:03:04Z</time>
      </trkpt>
      <trkpt lat="59.9554226" lon="17.7150648">
        <ele>47.2418</ele>
        <time>2014-06-09T18:03:05Z</time>
      </trkpt>
      <trkpt lat="59.9554059" lon="17.7150162">
        <ele>47.7225</ele>
        <time>2014-06-09T18:03:06Z</time>
      </trkpt>
      <trkpt lat="59.9553942" lon="17.7149724">
        <ele>48.2034</ele>
        <time>2014-06-09T18:03:07Z</time>
      </trkpt>
      <trkpt lat="59.9553776" lon="17.714923">
        <ele>48.684</ele>
        <time>2014-06-09T18:03:08Z</time>
      </trkpt>
      <trkpt lat="59.9553655" lon="17.7148696">
        <ele>48.684</ele>
        <time>2014-06-09T18:03:09Z</time>
      </trkpt>
      <trkpt lat="59.9553535" lon="17.7148183">
        <ele>48.684</ele>
        <time>2014-06-09T18:03:10Z</time>
      </trkpt>
      <trkpt lat="59.9553467" lon="17.7147577">
        <ele>48.684</ele>
        <time>2014-06-09T18:03:11Z</time>
      </trkpt>
      <trkpt lat="59.9553372" lon="17.7147033">
        <ele>48.2034</ele>
        <time>2014-06-09T18:03:12Z</time>
      </trkpt>
      <trkpt lat="59.9553267" lon="17.7146497">
        <ele>48.684</ele>
        <time>2014-06-09T18:03:13Z</time>
      </trkpt>
      <trkpt lat="59.9553138" lon="17.7145959">
        <ele>48.2034</ele>
        <time>2014-06-09T18:03:14Z</time>
      </trkpt>
      <trkpt lat="59.9553018" lon="17.7145447">
        <ele>48.2034</ele>
        <time>2014-06-09T18:03:15Z</time>
      </trkpt>
      <trkpt lat="59.9552934" lon="17.7144923">
        <ele>47.7225</ele>
        <time>2014-06-09T18:03:16Z</time>
      </trkpt>
      <trkpt lat="59.9552837" lon="17.7144356">
        <ele>47.7225</ele>
        <time>2014-06-09T18:03:17Z</time>
      </trkpt>
      <trkpt lat="59.9552761" lon="17.7143845">
        <ele>47.2418</ele>
        <time>2014-06-09T18:03:18Z</time>
      </trkpt>
      <trkpt lat="59.9552687" lon="17.7143364">
        <ele>46.7612</ele>
        <time>2014-06-09T18:03:19Z</time>
      </trkpt>
      <trkpt lat="59.9552595" lon="17.7142851">
        <ele>46.7612</ele>
        <time>2014-06-09T18:03:20Z</time>
      </trkpt>
      <trkpt lat="59.9552491" lon="17.7142314">
        <ele>46.2806</ele>
        <time>2014-06-09T18:03:21Z</time>
      </trkpt>
      <trkpt lat="59.9552367" lon="17.7141809">
        <ele>45.3192</ele>
        <time>2014-06-09T18:03:22Z</time>
      </trkpt>
      <trkpt lat="59.9552205" lon="17.7141317">
        <ele>45.3192</ele>
        <time>2014-06-09T18:03:23Z</time>
      </trkpt>
      <trkpt lat="59.9551988" lon="17.714096">
        <ele>44.8386</ele>
        <time>2014-06-09T18:03:24Z</time>
      </trkpt>
      <trkpt lat="59.955177" lon="17.7140882">
        <ele>43.8773</ele>
        <time>2014-06-09T18:03:25Z</time>
      </trkpt>
      <trkpt lat="59.9551582" lon="17.7141014">
        <ele>43.3966</ele>
        <time>2014-06-09T18:03:26Z</time>
      </trkpt>
      <trkpt lat="59.9551434" lon="17.7141396">
        <ele>42.916</ele>
        <time>2014-06-09T18:03:27Z</time>
      </trkpt>
      <trkpt lat="59.955134" lon="17.7141805">
        <ele>42.916</ele>
        <time>2014-06-09T18:03:28Z</time>
      </trkpt>
      <trkpt lat="59.9551206" lon="17.7142056">
        <ele>42.916</ele>
        <time>2014-06-09T18:03:29Z</time>
      </trkpt>
      <trkpt lat="59.9551" lon="17.7142293">
        <ele>42.916</ele>
        <time>2014-06-09T18:03:30Z</time>
      </trkpt>
      <trkpt lat="59.9550792" lon="17.7142643">
        <ele>42.916</ele>
        <time>2014-06-09T18:03:31Z</time>
      </trkpt>
      <trkpt lat="59.9550597" lon="17.7142947">
        <ele>42.916</ele>
        <time>2014-06-09T18:03:32Z</time>
      </trkpt>
      <trkpt lat="59.9550391" lon="17.7143356">
        <ele>42.916</ele>
        <time>2014-06-09T18:03:33Z</time>
      </trkpt>
      <trkpt lat="59.9550188" lon="17.7143794">
        <ele>43.3966</ele>
        <time>2014-06-09T18:03:34Z</time>
      </trkpt>
      <trkpt lat="59.9550007" lon="17.7144311">
        <ele>42.916</ele>
        <time>2014-06-09T18:03:35Z</time>
      </trkpt>
      <trkpt lat="59.9549831" lon="17.7144829">
        <ele>43.3966</ele>
        <time>2014-06-09T18:03:36Z</time>
      </trkpt>
      <trkpt lat="59.954961" lon="17.7145454">
        <ele>43.3966</ele>
        <time>2014-06-09T18:03:37Z</time>
      </trkpt>
      <trkpt lat="59.9549372" lon="17.7146104">
        <ele>43.8773</ele>
        <time>2014-06-09T18:03:38Z</time>
      </trkpt>
      <trkpt lat="59.9549103" lon="17.7146638">
        <ele>44.358</ele>
        <time>2014-06-09T18:03:39Z</time>
      </trkpt>
      <trkpt lat="59.9548761" lon="17.71471">
        <ele>44.8386</ele>
        <time>2014-06-09T18:03:40Z</time>
      </trkpt>
      <trkpt lat="59.954846" lon="17.7147504">
        <ele>45.3192</ele>
        <time>2014-06-09T18:03:41Z</time>
      </trkpt>
      <trkpt lat="59.9548147" lon="17.7147782">
        <ele>45.7999</ele>
        <time>2014-06-09T18:03:42Z</time>
      </trkpt>
      <trkpt lat="59.9547777" lon="17.7147981">
        <ele>46.7612</ele>
        <time>2014-06-09T18:03:43Z</time>
      </trkpt>
      <trkpt lat="59.954746" lon="17.714812">
        <ele>46.7612</ele>
        <time>2014-06-09T18:03:44Z</time>
      </trkpt>
      <trkpt lat="59.954719" lon="17.7148224">
        <ele>47.7225</ele>
        <time>2014-06-09T18:03:45Z</time>
      </trkpt>
      <trkpt lat="59.9546923" lon="17.714826">
        <ele>47.7225</ele>
        <time>2014-06-09T18:03:46Z</time>
      </trkpt>
      <trkpt lat="59.9546622" lon="17.7148292">
        <ele>48.2034</ele>
        <time>2014-06-09T18:03:47Z</time>
      </trkpt>
      <trkpt lat="59.954631" lon="17.7148372">
        <ele>48.2034</ele>
        <time>2014-06-09T18:03:48Z</time>
      </trkpt>
      <trkpt lat="59.9545964" lon="17.7148476">
        <ele>48.684</ele>
        <time>2014-06-09T18:03:49Z</time>
      </trkpt>
      <trkpt lat="59.9545611" lon="17.7148597">
        <ele>49.1646</ele>
        <time>2014-06-09T18:03:50Z</time>
      </trkpt>
      <trkpt lat="59.9545259" lon="17.7148711">
        <ele>49.6453</ele>
        <time>2014-06-09T18:03:51Z</time>
      </trkpt>
      <trkpt lat="59.9544982" lon="17.7148829">
        <ele>50.126</ele>
        <time>2014-06-09T18:03:52Z</time>
      </trkpt>
      <trkpt lat="59.9544775" lon="17.7148886">
        <ele>50.6066</ele>
        <time>2014-06-09T18:03:53Z</time>
      </trkpt>
      <trkpt lat="59.9544578" lon="17.7148995">
        <ele>51.5679</ele>
        <time>2014-06-09T18:03:54Z</time>
      </trkpt>
      <trkpt lat="59.9544397" lon="17.7149049">
        <ele>51.5679</ele>
        <time>2014-06-09T18:03:55Z</time>
      </trkpt>
      <trkpt lat="59.954421" lon="17.7148996">
        <ele>52.0486</ele>
        <time>2014-06-09T18:03:56Z</time>
      </trkpt>
      <trkpt lat="59.9544014" lon="17.71489">
        <ele>52.0486</ele>
        <time>2014-06-09T18:03:57Z</time>
      </trkpt>
      <trkpt lat="59.9543794" lon="17.7148751">
        <ele>52.0486</ele>
        <time>2014-06-09T18:03:58Z</time>
      </trkpt>
      <trkpt lat="59.9543561" lon="17.7148704">
        <ele>52.5292</ele>
        <time>2014-06-09T18:03:59Z</time>
      </trkpt>
      <trkpt lat="59.9543307" lon="17.7148737">
        <ele>52.5292</ele>
        <time>2014-06-09T18:04:00Z</time>
      </trkpt>
      <trkpt lat="59.9543004" lon="17.7148681">
        <ele>52.5292</ele>
        <time>2014-06-09T18:04:01Z</time>
      </trkpt>
      <trkpt lat="59.954262" lon="17.7148712">
        <ele>52.5292</ele>
        <time>2014-06-09T18:04:02Z</time>
      </trkpt>
      <trkpt lat="59.9542297" lon="17.714868">
        <ele>52.5292</ele>
        <time>2014-06-09T18:04:03Z</time>
      </trkpt>
      <trkpt lat="59.9542046" lon="17.7148711">
        <ele>52.5292</ele>
        <time>2014-06-09T18:04:04Z</time>
      </trkpt>
      <trkpt lat="59.9541778" lon="17.7148871">
        <ele>53.0098</ele>
        <time>2014-06-09T18:04:05Z</time>
      </trkpt>
      <trkpt lat="59.954152" lon="17.7148985">
        <ele>52.5292</ele>
        <time>2014-06-09T18:04:06Z</time>
      </trkpt>
      <trkpt lat="59.9541259" lon="17.7149172">
        <ele>53.0098</ele>
        <time>2014-06-09T18:04:07Z</time>
      </trkpt>
      <trkpt lat="59.9540999" lon="17.7149303">
        <ele>52.5292</ele>
        <time>2014-06-09T18:04:08Z</time>
      </trkpt>
      <trkpt lat="59.9540681" lon="17.7149498">
        <ele>53.4905</ele>
        <time>2014-06-09T18:04:09Z</time>
      </trkpt>
      <trkpt lat="59.9549398" lon="17.7211923">
        <ele>51.5679</ele>
        <time>2014-06-09T18:15:24Z</time>
      </trkpt>
      <trkpt lat="59.9549297" lon="17.7211673">
        <ele>51.0872</ele>
        <time>2014-06-09T18:15:25Z</time>
      </trkpt>
      <trkpt lat="59.9549179" lon="17.7211495">
        <ele>50.6066</ele>
        <time>2014-06-09T18:15:26Z</time>
      </trkpt>
      <trkpt lat="59.9549005" lon="17.7211212">
        <ele>50.126</ele>
        <time>2014-06-09T18:15:27Z</time>
      </trkpt>
      <trkpt lat="59.9548776" lon="17.7210813">
        <ele>49.1646</ele>
        <time>2014-06-09T18:15:28Z</time>
      </trkpt>
      <trkpt lat="59.9548589" lon="17.7210276">
        <ele>49.1646</ele>
        <time>2014-06-09T18:15:29Z</time>
      </trkpt>
      <trkpt lat="59.9548451" lon="17.7209701">
        <ele>48.684</ele>
        <time>2014-06-09T18:15:30Z</time>
      </trkpt>
      <trkpt lat="59.9548414" lon="17.7209058">
        <ele>48.2034</ele>
        <time>2014-06-09T18:15:31Z</time>
      </trkpt>
      <trkpt lat="59.9548372" lon="17.7208428">
        <ele>49.1646</ele>
        <time>2014-06-09T18:15:32Z</time>
      </trkpt>
      <trkpt lat="59.9548315" lon="17.7207747">
        <ele>49.1646</ele>
        <time>2014-06-09T18:15:33Z</time>
      </trkpt>
      <trkpt lat="59.9548259" lon="17.7207081">
        <ele>48.684</ele>
        <time>2014-06-09T18:15:34Z</time>
      </trkpt>
      <trkpt lat="59.9548313" lon="17.7206412">
        <ele>49.6453</ele>
        <time>2014-06-09T18:15:35Z</time>
      </trkpt>
      <trkpt lat="59.954846" lon="17.7205868">
        <ele>50.126</ele>
        <time>2014-06-09T18:15:36Z</time>
      </trkpt>
      <trkpt lat="59.9548653" lon="17.7205417">
        <ele>50.6066</ele>
        <time>2014-06-09T18:15:37Z</time>
      </trkpt>
      <trkpt lat="59.9548849" lon="17.7205016">
        <ele>50.6066</ele>
        <time>2014-06-09T18:15:38Z</time>
      </trkpt>
      <trkpt lat="59.9549078" lon="17.7204656">
        <ele>50.6066</ele>
        <time>2014-06-09T18:15:39Z</time>
      </trkpt>
      <trkpt lat="59.9549287" lon="17.7204338">
        <ele>51.0872</ele>
        <time>2014-06-09T18:15:40Z</time>
      </trkpt>
      <trkpt lat="59.9549497" lon="17.7204044">
        <ele>51.5679</ele>
        <time>2014-06-09T18:15:41Z</time>
      </trkpt>
      <trkpt lat="59.9549775" lon="17.7203729">
        <ele>51.5679</ele>
        <time>2014-06-09T18:15:42Z</time>
      </trkpt>
      <trkpt lat="59.9550043" lon="17.7203507">
        <ele>51.5679</ele>
        <time>2014-06-09T18:15:43Z</time>
      </trkpt>
      <trkpt lat="59.9550307" lon="17.7203219">
        <ele>51.0872</ele>
        <time>2014-06-09T18:15:44Z</time>
      </trkpt>
      <trkpt lat="59.9550562" lon="17.7202911">
        <ele>51.0872</ele>
        <time>2014-06-09T18:15:45Z</time>
      </trkpt>
      <trkpt lat="59.955081" lon="17.720262">
        <ele>51.0872</ele>
        <time>2014-06-09T18:15:46Z</time>
      </trkpt>
      <trkpt lat="59.9551066" lon="17.7202282">
        <ele>51.5679</ele>
        <time>2014-06-09T18:15:47Z</time>
      </trkpt>
      <trkpt lat="59.9551325" lon="17.7202071">
        <ele>52.0486</ele>
        <time>2014-06-09T18:15:48Z</time>
      </trkpt>
      <trkpt lat="59.9551537" lon="17.7201924">
        <ele>52.0486</ele>
        <time>2014-06-09T18:15:49Z</time>
      </trkpt>
      <trkpt lat="59.9551743" lon="17.7201708">
        <ele>52.0486</ele>
        <time>2014-06-09T18:15:50Z</time>
      </trkpt>
      <trkpt lat="59.9551944" lon="17.7201548">
        <ele>52.0486</ele>
        <time>2014-06-09T18:15:51Z</time>
      </trkpt>
      <trkpt lat="59.9552152" lon="17.7201366">
        <ele>52.0486</ele>
        <time>2014-06-09T18:15:52Z</time>
      </trkpt>
      <trkpt lat="59.9552357" lon="17.7201189">
        <ele>52.5292</ele>
        <time>2014-06-09T18:15:53Z</time>
      </trkpt>
      <trkpt lat="59.9552563" lon="17.7200983">
        <ele>52.5292</ele>
        <time>2014-06-09T18:15:54Z</time>
      </trkpt>
      <trkpt lat="59.955283" lon="17.7200714">
        <ele>53.0098</ele>
        <time>2014-06-09T18:15:55Z</time>
      </trkpt>
      <trkpt lat="59.9553064" lon="17.7200465">
        <ele>53.4905</ele>
        <time>2014-06-09T18:15:56Z</time>
      </trkpt>
      <trkpt lat="59.9553252" lon="17.7200249">
        <ele>54.4518</ele>
        <time>2014-06-09T18:15:57Z</time>
      </trkpt>
      <trkpt lat="59.9553412" lon="17.7200113">
        <ele>54.9324</ele>
        <time>2014-06-09T18:15:58Z</time>
      </trkpt>
      <trkpt lat="59.9553589" lon="17.7199921">
        <ele>54.9324</ele>
        <time>2014-06-09T18:15:59Z</time>
      </trkpt>
      <trkpt lat="59.9553816" lon="17.7199662">
        <ele>55.4131</ele>
        <time>2014-06-09T18:16:00Z</time>
      </trkpt>
      <trkpt lat="59.9554039" lon="17.7199424">
        <ele>55.4131</ele>
        <time>2014-06-09T18:16:01Z</time>
      </trkpt>
      <trkpt lat="59.9554256" lon="17.7199293">
        <ele>55.4131</ele>
        <time>2014-06-09T18:16:02Z</time>
      </trkpt>
      <trkpt lat="59.9554555" lon="17.7199151">
        <ele>55.4131</ele>
        <time>2014-06-09T18:16:03Z</time>
      </trkpt>
      <trkpt lat="59.9554827" lon="17.7199035">
        <ele>55.4131</ele>
        <time>2014-06-09T18:16:04Z</time>
      </trkpt>
      <trkpt lat="59.955508" lon="17.7198946">
        <ele>55.8938</ele>
        <time>2014-06-09T18:16:05Z</time>
      </trkpt>
      <trkpt lat="59.9555298" lon="17.7198897">
        <ele>55.4131</ele>
        <time>2014-06-09T18:16:06Z</time>
      </trkpt>
      <trkpt lat="59.9555496" lon="17.7198876">
        <ele>55.4131</ele>
        <time>2014-06-09T18:16:07Z</time>
      </trkpt>
      <trkpt lat="59.9555641" lon="17.7198818">
        <ele>54.9324</ele>
        <time>2014-06-09T18:16:08Z</time>
      </trkpt>
      <trkpt lat="59.9555826" lon="17.7198735">
        <ele>55.4131</ele>
        <time>2014-06-09T18:16:09Z</time>
      </trkpt>
      <trkpt lat="59.9556064" lon="17.719862">
        <ele>54.4518</ele>
        <time>2014-06-09T18:16:10Z</time>
      </trkpt>
      <trkpt lat="59.9556327" lon="17.7198436">
        <ele>54.4518</ele>
        <time>2014-06-09T18:16:11Z</time>
      </trkpt>
      <trkpt lat="59.9556624" lon="17.719815">
        <ele>54.9324</ele>
        <time>2014-06-09T18:16:12Z</time>
      </trkpt>
      <trkpt lat="59.9556878" lon="17.7197818">
        <ele>55.8938</ele>
        <time>2014-06-09T18:16:13Z</time>
      </trkpt>
      <trkpt lat="59.9557125" lon="17.7197464">
        <ele>56.3745</ele>
        <time>2014-06-09T18:16:14Z</time>
      </trkpt>
      <trkpt lat="59.9557416" lon="17.719714">
        <ele>56.8551</ele>
        <time>2014-06-09T18:16:15Z</time>
      </trkpt>
      <trkpt lat="59.9557702" lon="17.7196863">
        <ele>56.8551</ele>
        <time>2014-06-09T18:16:16Z</time>
      </trkpt>
      <trkpt lat="59.9557946" lon="17.7196646">
        <ele>56.8551</ele>
        <time>2014-06-09T18:16:17Z</time>
      </trkpt>
      <trkpt lat="59.9558217" lon="17.7196462">
        <ele>57.3358</ele>
        <time>2014-06-09T18:16:18Z</time>
      </trkpt>
      <trkpt lat="59.9558495" lon="17.7196248">
        <ele>58.2971</ele>
        <time>2014-06-09T18:16:19Z</time>
      </trkpt>
      <trkpt lat="59.9558726" lon="17.719601">
        <ele>58.7777</ele>
        <time>2014-06-09T18:16:20Z</time>
      </trkpt>
      <trkpt lat="59.9558953" lon="17.7195729">
        <ele>59.2584</ele>
        <time>2014-06-09T18:16:21Z</time>
      </trkpt>
      <trkpt lat="59.9559223" lon="17.7195405">
        <ele>59.2584</ele>
        <time>2014-06-09T18:16:22Z</time>
      </trkpt>
      <trkpt lat="59.9559524" lon="17.719506">
        <ele>59.7391</ele>
        <time>2014-06-09T18:16:23Z</time>
      </trkpt>
      <trkpt lat="59.9559768" lon="17.7194778">
        <ele>59.7391</ele>
        <time>2014-06-09T18:16:24Z</time>
      </trkpt>
      <trkpt lat="59.9559996" lon="17.719448">
        <ele>60.2197</ele>
        <time>2014-06-09T18:16:25Z</time>
      </trkpt>
      <trkpt lat="59.956016" lon="17.719417">
        <ele>59.7391</ele>
        <time>2014-06-09T18:16:26Z</time>
      </trkpt>
      <trkpt lat="59.9560302" lon="17.7193825">
        <ele>59.2584</ele>
        <time>2014-06-09T18:16:27Z</time>
      </trkpt>
      <trkpt lat="59.9560476" lon="17.7193424">
        <ele>59.2584</ele>
        <time>2014-06-09T18:16:28Z</time>
      </trkpt>
      <trkpt lat="59.956064" lon="17.7193085">
        <ele>59.2584</ele>
        <time>2014-06-09T18:16:29Z</time>
      </trkpt>
      <trkpt lat="59.9560814" lon="17.7192766">
        <ele>58.7777</ele>
        <time>2014-06-09T18:16:30Z</time>
      </trkpt>
      <trkpt lat="59.956102" lon="17.7192431">
        <ele>59.2584</ele>
        <time>2014-06-09T18:16:31Z</time>
      </trkpt>
      <trkpt lat="59.9561209" lon="17.7192017">
        <ele>59.2584</ele>
        <time>2014-06-09T18:16:32Z</time>
      </trkpt>
      <trkpt lat="59.9561368" lon="17.7191601">
        <ele>59.2584</ele>
        <time>2014-06-09T18:16:33Z</time>
      </trkpt>
      <trkpt lat="59.9561514" lon="17.7191141">
        <ele>59.2584</ele>
        <time>2014-06-09T18:16:34Z</time>
      </trkpt>
      <trkpt lat="59.9561633" lon="17.7190709">
        <ele>59.2584</ele>
        <time>2014-06-09T18:16:35Z</time>
      </trkpt>
      <trkpt lat="59.9561742" lon="17.7190333">
        <ele>58.7777</ele>
        <time>2014-06-09T18:16:36Z</time>
      </trkpt>
      <trkpt lat="59.9561844" lon="17.7189927">
        <ele>58.7777</ele>
        <time>2014-06-09T18:16:37Z</time>
      </trkpt>
      <trkpt lat="59.9561906" lon="17.7189479">
        <ele>58.7777</ele>
        <time>2014-06-09T18:16:38Z</time>
      </trkpt>
      <trkpt lat="59.9561965" lon="17.7189026">
        <ele>58.7777</ele>
        <time>2014-06-09T18:16:39Z</time>
      </trkpt>
      <trkpt lat="59.9561984" lon="17.7188596">
        <ele>58.7777</ele>
        <time>2014-06-09T18:16:40Z</time>
      </trkpt>
      <trkpt lat="59.9561984" lon="17.7188081">
        <ele>58.7777</ele>
        <time>2014-06-09T18:16:41Z</time>
      </trkpt>
      <trkpt lat="59.956203" lon="17.718756">
        <ele>58.7777</ele>
        <time>2014-06-09T18:16:42Z</time>
      </trkpt>
      <trkpt lat="59.9562068" lon="17.7187043">
        <ele>58.2971</ele>
        <time>2014-06-09T18:16:43Z</time>
      </trkpt>
      <trkpt lat="59.9562051" lon="17.7186506">
        <ele>57.8165</ele>
        <time>2014-06-09T18:16:44Z</time>
      </trkpt>
      <trkpt lat="59.9562006" lon="17.7185936">
        <ele>57.3358</ele>
        <time>2014-06-09T18:16:45Z</time>
      </trkpt>
      <trkpt lat="59.9561942" lon="17.718532">
        <ele>57.3358</ele>
        <time>2014-06-09T18:16:46Z</time>
      </trkpt>
      <trkpt lat="59.9561872" lon="17.7184747">
        <ele>56.3745</ele>
        <time>2014-06-09T18:16:47Z</time>
      </trkpt>
      <trkpt lat="59.9561767" lon="17.7184301">
        <ele>55.8938</ele>
        <time>2014-06-09T18:16:48Z</time>
      </trkpt>
      <trkpt lat="59.9561639" lon="17.7183884">
        <ele>55.4131</ele>
        <time>2014-06-09T18:16:49Z</time>
      </trkpt>
      <trkpt lat="59.9561483" lon="17.7183418">
        <ele>54.9324</ele>
        <time>2014-06-09T18:16:50Z</time>
      </trkpt>
      <trkpt lat="59.9561296" lon="17.718295">
        <ele>53.9712</ele>
        <time>2014-06-09T18:16:51Z</time>
      </trkpt>
      <trkpt lat="59.9561135" lon="17.718248">
        <ele>53.4905</ele>
        <time>2014-06-09T18:16:52Z</time>
      </trkpt>
      <trkpt lat="59.9560992" lon="17.7181993">
        <ele>52.5292</ele>
        <time>2014-06-09T18:16:53Z</time>
      </trkpt>
      <trkpt lat="59.9560816" lon="17.7181432">
        <ele>52.5292</ele>
        <time>2014-06-09T18:16:54Z</time>
      </trkpt>
      <trkpt lat="59.9560674" lon="17.7180974">
        <ele>52.0486</ele>
        <time>2014-06-09T18:16:55Z</time>
      </trkpt>
      <trkpt lat="59.9560552" lon="17.7180598">
        <ele>51.5679</ele>
        <time>2014-06-09T18:16:56Z</time>
      </trkpt>
      <trkpt lat="59.9560442" lon="17.7180212">
        <ele>51.0872</ele>
        <time>2014-06-09T18:16:57Z</time>
      </trkpt>
      <trkpt lat="59.9560343" lon="17.7179786">
        <ele>50.126</ele>
        <time>2014-06-09T18:16:58Z</time>
      </trkpt>
      <trkpt lat="59.9560179" lon="17.7179267">
        <ele>50.6066</ele>
        <time>2014-06-09T18:16:59Z</time>
      </trkpt>
      <trkpt lat="59.9560001" lon="17.7178766">
        <ele>50.6066</ele>
        <time>2014-06-09T18:17:00Z</time>
      </trkpt>
      <trkpt lat="59.9559846" lon="17.7178314">
        <ele>50.6066</ele>
        <time>2014-06-09T18:17:01Z</time>
      </trkpt>
      <trkpt lat="59.9559715" lon="17.7177948">
        <ele>49.6453</ele>
        <time>2014-06-09T18:17:02Z</time>
      </trkpt>
      <trkpt lat="59.9559592" lon="17.7177615">
        <ele>49.6453</ele>
        <time>2014-06-09T18:17:03Z</time>
      </trkpt>
      <trkpt lat="59.9559456" lon="17.7177221">
        <ele>49.6453</ele>
        <time>2014-06-09T18:17:04Z</time>
      </trkpt>
      <trkpt lat="59.9559311" lon="17.7176842">
        <ele>49.1646</ele>
        <time>2014-06-09T18:17:05Z</time>
      </trkpt>
      <trkpt lat="59.9559131" lon="17.7176461">
        <ele>49.1646</ele>
        <time>2014-06-09T18:17:06Z</time>
      </trkpt>
      <trkpt lat="59.9558945" lon="17.7176123">
        <ele>48.684</ele>
        <time>2014-06-09T18:17:07Z</time>
      </trkpt>
      <trkpt lat="59.9558761" lon="17.7175777">
        <ele>48.684</ele>
        <time>2014-06-09T18:17:08Z</time>
      </trkpt>
      <trkpt lat="59.9558598" lon="17.7175418">
        <ele>48.684</ele>
        <time>2014-06-09T18:17:09Z</time>
      </trkpt>
      <trkpt lat="59.9558416" lon="17.7175036">
        <ele>48.684</ele>
        <time>2014-06-09T18:17:10Z</time>
      </trkpt>
      <trkpt lat="59.9558271" lon="17.7174626">
        <ele>48.684</ele>
        <time>2014-06-09T18:17:11Z</time>
      </trkpt>
      <trkpt lat="59.9558107" lon="17.7174271">
        <ele>47.7225</ele>
        <time>2014-06-09T18:17:12Z</time>
      </trkpt>
      <trkpt lat="59.9557933" lon="17.7173921">
        <ele>47.7225</ele>
        <time>2014-06-09T18:17:13Z</time>
      </trkpt>
      <trkpt lat="59.9557739" lon="17.7173517">
        <ele>47.2418</ele>
        <time>2014-06-09T18:17:14Z</time>
      </trkpt>
      <trkpt lat="59.9557554" lon="17.7173123">
        <ele>46.7612</ele>
        <time>2014-06-09T18:17:15Z</time>
      </trkpt>
      <trkpt lat="59.955733" lon="17.7172729">
        <ele>46.7612</ele>
        <time>2014-06-09T18:17:16Z</time>
      </trkpt>
      <trkpt lat="59.9557093" lon="17.7172248">
        <ele>46.7612</ele>
        <time>2014-06-09T18:17:17Z</time>
      </trkpt>
      <trkpt lat="59.9556914" lon="17.7171792">
        <ele>46.7612</ele>
        <time>2014-06-09T18:17:18Z</time>
      </trkpt>
      <trkpt lat="59.9556781" lon="17.7171338">
        <ele>47.2418</ele>
        <time>2014-06-09T18:17:19Z</time>
      </trkpt>
      <trkpt lat="59.9556716" lon="17.7170913">
        <ele>46.7612</ele>
        <time>2014-06-09T18:17:20Z</time>
      </trkpt>
      <trkpt lat="59.9556629" lon="17.717051">
        <ele>46.7612</ele>
        <time>2014-06-09T18:17:21Z</time>
      </trkpt>
      <trkpt lat="59.955653" lon="17.7170074">
        <ele>46.7612</ele>
        <time>2014-06-09T18:17:22Z</time>
      </trkpt>
      <trkpt lat="59.9556411" lon="17.7169572">
        <ele>46.2806</ele>
        <time>2014-06-09T18:17:23Z</time>
      </trkpt>
      <trkpt lat="59.9556298" lon="17.7169085">
        <ele>46.7612</ele>
        <time>2014-06-09T18:17:24Z</time>
      </trkpt>
      <trkpt lat="59.9556259" lon="17.7168587">
        <ele>47.2418</ele>
        <time>2014-06-09T18:17:25Z</time>
      </trkpt>
      <trkpt lat="59.955621" lon="17.7168032">
        <ele>47.7225</ele>
        <time>2014-06-09T18:17:26Z</time>
      </trkpt>
      <trkpt lat="59.9556092" lon="17.7167479">
        <ele>48.684</ele>
        <time>2014-06-09T18:17:27Z</time>
      </trkpt>
      <trkpt lat="59.9555998" lon="17.7166964">
        <ele>48.684</ele>
        <time>2014-06-09T18:17:28Z</time>
      </trkpt>
      <trkpt lat="59.9555921" lon="17.7166401">
        <ele>48.684</ele>
        <time>2014-06-09T18:17:29Z</time>
      </trkpt>
      <trkpt lat="59.9555868" lon="17.7165877">
        <ele>49.1646</ele>
        <time>2014-06-09T18:17:30Z</time>
      </trkpt>
      <trkpt lat="59.9555868" lon="17.7165391">
        <ele>49.1646</ele>
        <time>2014-06-09T18:17:31Z</time>
      </trkpt>
      <trkpt lat="59.9555795" lon="17.7164914">
        <ele>49.1646</ele>
        <time>2014-06-09T18:17:32Z</time>
      </trkpt>
      <trkpt lat="59.9555697" lon="17.7164458">
        <ele>49.1646</ele>
        <time>2014-06-09T18:17:33Z</time>
      </trkpt>
      <trkpt lat="59.9555649" lon="17.7164032">
        <ele>49.1646</ele>
        <time>2014-06-09T18:17:34Z</time>
      </trkpt>
      <trkpt lat="59.955562" lon="17.7163568">
        <ele>49.6453</ele>
        <time>2014-06-09T18:17:35Z</time>
      </trkpt>
      <trkpt lat="59.9555578" lon="17.716318">
        <ele>49.6453</ele>
        <time>2014-06-09T18:17:36Z</time>
      </trkpt>
      <trkpt lat="59.9555553" lon="17.7162788">
        <ele>49.6453</ele>
        <time>2014-06-09T18:17:37Z</time>
      </trkpt>
      <trkpt lat="59.955551" lon="17.7162304">
        <ele>49.6453</ele>
        <time>2014-06-09T18:17:38Z</time>
      </trkpt>
      <trkpt lat="59.9555451" lon="17.7161768">
        <ele>49.6453</ele>
        <time>2014-06-09T18:17:39Z</time>
      </trkpt>
      <trkpt lat="59.9555396" lon="17.7161216">
        <ele>49.6453</ele>
        <time>2014-06-09T18:17:40Z</time>
      </trkpt>
      <trkpt lat="59.9555339" lon="17.716074">
        <ele>49.6453</ele>
        <time>2014-06-09T18:17:41Z</time>
      </trkpt>
      <trkpt lat="59.9555266" lon="17.7160297">
        <ele>49.6453</ele>
        <time>2014-06-09T18:17:42Z</time>
      </trkpt>
      <trkpt lat="59.955521" lon="17.715982">
        <ele>49.6453</ele>
        <time>2014-06-09T18:17:43Z</time>
      </trkpt>
      <trkpt lat="59.9555174" lon="17.7159261">
        <ele>49.1646</ele>
        <time>2014-06-09T18:17:44Z</time>
      </trkpt>
      <trkpt lat="59.955514" lon="17.7158694">
        <ele>48.684</ele>
        <time>2014-06-09T18:17:45Z</time>
      </trkpt>
      <trkpt lat="59.9555065" lon="17.7158178">
        <ele>48.684</ele>
        <time>2014-06-09T18:17:46Z</time>
      </trkpt>
      <trkpt lat="59.9555022" lon="17.7157717">
        <ele>48.684</ele>
        <time>2014-06-09T18:17:47Z</time>
      </trkpt>
      <trkpt lat="59.9554972" lon="17.7157242">
        <ele>48.684</ele>
        <time>2014-06-09T18:17:48Z</time>
      </trkpt>
      <trkpt lat="59.95549" lon="17.7156755">
        <ele>48.684</ele>
        <time>2014-06-09T18:17:49Z</time>
      </trkpt>
      <trkpt lat="59.9554836" lon="17.7156228">
        <ele>48.684</ele>
        <time>2014-06-09T18:17:50Z</time>
      </trkpt>
      <trkpt lat="59.9554764" lon="17.7155717">
        <ele>48.684</ele>
        <time>2014-06-09T18:17:51Z</time>
      </trkpt>
      <trkpt lat="59.9554672" lon="17.7155241">
        <ele>48.684</ele>
        <time>2014-06-09T18:17:52Z</time>
      </trkpt>
      <trkpt lat="59.9554623" lon="17.715475">
        <ele>48.684</ele>
        <time>2014-06-09T18:17:53Z</time>
      </trkpt>
      <trkpt lat="59.9554589" lon="17.715429">
        <ele>48.2034</ele>
        <time>2014-06-09T18:17:54Z</time>
      </trkpt>
      <trkpt lat="59.9554521" lon="17.715385">
        <ele>48.2034</ele>
        <time>2014-06-09T18:17:55Z</time>
      </trkpt>
      <trkpt lat="59.9554411" lon="17.7153356">
        <ele>47.7225</ele>
        <time>2014-06-09T18:17:56Z</time>
      </trkpt>
      <trkpt lat="59.9554343" lon="17.7152874">
        <ele>47.2418</ele>
        <time>2014-06-09T18:17:57Z</time>
      </trkpt>
      <trkpt lat="59.9554335" lon="17.7152397">
        <ele>46.7612</ele>
        <time>2014-06-09T18:17:58Z</time>
      </trkpt>
      <trkpt lat="59.9554323" lon="17.7151871">
        <ele>46.7612</ele>
        <time>2014-06-09T18:17:59Z</time>
      </trkpt>
      <trkpt lat="59.9554292" lon="17.7151416">
        <ele>46.2806</ele>
        <time>2014-06-09T18:18:00Z</time>
      </trkpt>
      <trkpt lat="59.9554279" lon="17.7150998">
        <ele>45.7999</ele>
        <time>2014-06-09T18:18:01Z</time>
      </trkpt>
      <trkpt lat="59.9554267" lon="17.7150638">
        <ele>45.3192</ele>
        <time>2014-06-09T18:18:02Z</time>
      </trkpt>
      <trkpt lat="59.9554283" lon="17.7150366">
        <ele>44.8386</ele>
        <time>2014-06-09T18:18:03Z</time>
      </trkpt>
    </trkseg>
  </trk>
</gpx>